<?xml version="1.0" encoding="UTF-8" standalone="no" ?>
<gpx xmlns="http://www.topografix.com/GPX/1/1" xmlns:xsi="http://www.w3.org/2001/XMLSchema-instance" xsi:schemaLocation="http://www.topografix.com/GPX/1/1 http://www.topografix.com/GPX/1/1/gpx.xsd" version="1.1" creator="VisuGPX - https://www.visugpx.com">
  <metadata>
    <name>LE CHAMEAU</name>
  </metadata>
  <trk>
    <name><![CDATA[ACTIVE LOG: 06 OCT 2018 08:24]]></name>
    <extensions>
      <line xmlns="http://www.topografix.com/GPX/gpx_style/0/2">
        <color>0000FF</color>
        <width>4</width>
      </line>
    </extensions>
    <trkseg>
      <trkpt lat="45.62232" lon="4.66609">
        <ele>408.7</ele>
        <time>2018-10-06T06:24:02Z</time>
      </trkpt>
      <trkpt lat="45.62232" lon="4.66609">
        <ele>408.7</ele>
        <time>2018-10-06T06:24:02Z</time>
      </trkpt>
      <trkpt lat="45.62234" lon="4.66626">
        <ele>395.72</ele>
        <time>2018-10-06T06:25:00Z</time>
      </trkpt>
      <trkpt lat="45.62234" lon="4.66648">
        <ele>386.59</ele>
        <time>2018-10-06T06:25:09Z</time>
      </trkpt>
      <trkpt lat="45.62239" lon="4.6668">
        <ele>379.38</ele>
        <time>2018-10-06T06:25:18Z</time>
      </trkpt>
      <trkpt lat="45.62229" lon="4.66692">
        <ele>378.42</ele>
        <time>2018-10-06T06:25:19Z</time>
      </trkpt>
      <trkpt lat="45.62211" lon="4.66712">
        <ele>377.45</ele>
        <time>2018-10-06T06:25:23Z</time>
      </trkpt>
      <trkpt lat="45.62202" lon="4.66726">
        <ele>378.42</ele>
        <time>2018-10-06T06:25:27Z</time>
      </trkpt>
      <trkpt lat="45.62201" lon="4.66746">
        <ele>378.9</ele>
        <time>2018-10-06T06:25:29Z</time>
      </trkpt>
      <trkpt lat="45.62187" lon="4.66776">
        <ele>379.86</ele>
        <time>2018-10-06T06:25:33Z</time>
      </trkpt>
      <trkpt lat="45.62128" lon="4.66805">
        <ele>378.9</ele>
        <time>2018-10-06T06:25:45Z</time>
      </trkpt>
      <trkpt lat="45.62108" lon="4.66856">
        <ele>380.34</ele>
        <time>2018-10-06T06:25:54Z</time>
      </trkpt>
      <trkpt lat="45.6211" lon="4.66861">
        <ele>380.34</ele>
        <time>2018-10-06T06:25:55Z</time>
      </trkpt>
      <trkpt lat="45.62123" lon="4.66897">
        <ele>383.7</ele>
        <time>2018-10-06T06:26:05Z</time>
      </trkpt>
      <trkpt lat="45.6213" lon="4.66911">
        <ele>385.15</ele>
        <time>2018-10-06T06:26:09Z</time>
      </trkpt>
      <trkpt lat="45.62147" lon="4.6697">
        <ele>382.74</ele>
        <time>2018-10-06T06:26:23Z</time>
      </trkpt>
      <trkpt lat="45.62138" lon="4.66988">
        <ele>382.26</ele>
        <time>2018-10-06T06:26:27Z</time>
      </trkpt>
      <trkpt lat="45.62143" lon="4.67009">
        <ele>385.63</ele>
        <time>2018-10-06T06:26:32Z</time>
      </trkpt>
      <trkpt lat="45.62198" lon="4.67057">
        <ele>391.39</ele>
        <time>2018-10-06T06:26:49Z</time>
      </trkpt>
      <trkpt lat="45.6219" lon="4.67093">
        <ele>383.22</ele>
        <time>2018-10-06T06:26:55Z</time>
      </trkpt>
      <trkpt lat="45.62105" lon="4.67194">
        <ele>382.26</ele>
        <time>2018-10-06T06:27:14Z</time>
      </trkpt>
      <trkpt lat="45.6205" lon="4.67272">
        <ele>381.3</ele>
        <time>2018-10-06T06:27:27Z</time>
      </trkpt>
      <trkpt lat="45.62024" lon="4.67278">
        <ele>379.86</ele>
        <time>2018-10-06T06:27:32Z</time>
      </trkpt>
      <trkpt lat="45.62009" lon="4.67262">
        <ele>381.78</ele>
        <time>2018-10-06T06:27:35Z</time>
      </trkpt>
      <trkpt lat="45.61966" lon="4.67181">
        <ele>377.45</ele>
        <time>2018-10-06T06:27:48Z</time>
      </trkpt>
      <trkpt lat="45.61946" lon="4.6716">
        <ele>376.97</ele>
        <time>2018-10-06T06:27:54Z</time>
      </trkpt>
      <trkpt lat="45.61938" lon="4.67127">
        <ele>374.57</ele>
        <time>2018-10-06T06:28:00Z</time>
      </trkpt>
      <trkpt lat="45.61947" lon="4.67092">
        <ele>374.57</ele>
        <time>2018-10-06T06:28:07Z</time>
      </trkpt>
      <trkpt lat="45.61957" lon="4.67063">
        <ele>377.94</ele>
        <time>2018-10-06T06:28:15Z</time>
      </trkpt>
      <trkpt lat="45.61963" lon="4.67059">
        <ele>379.86</ele>
        <time>2018-10-06T06:28:20Z</time>
      </trkpt>
      <trkpt lat="45.61969" lon="4.67059">
        <ele>381.3</ele>
        <time>2018-10-06T06:28:25Z</time>
      </trkpt>
      <trkpt lat="45.61972" lon="4.67055">
        <ele>380.82</ele>
        <time>2018-10-06T06:28:28Z</time>
      </trkpt>
      <trkpt lat="45.61971" lon="4.67052">
        <ele>381.3</ele>
        <time>2018-10-06T06:28:31Z</time>
      </trkpt>
      <trkpt lat="45.61974" lon="4.67052">
        <ele>380.34</ele>
        <time>2018-10-06T06:28:35Z</time>
      </trkpt>
      <trkpt lat="45.61977" lon="4.67062">
        <ele>381.3</ele>
        <time>2018-10-06T06:28:49Z</time>
      </trkpt>
      <trkpt lat="45.61975" lon="4.67066">
        <ele>389.47</ele>
        <time>2018-10-06T06:30:07Z</time>
      </trkpt>
      <trkpt lat="45.6198" lon="4.67062">
        <ele>380.82</ele>
        <time>2018-10-06T06:39:04Z</time>
      </trkpt>
      <trkpt lat="45.61991" lon="4.67065">
        <ele>377.45</ele>
        <time>2018-10-06T06:39:14Z</time>
      </trkpt>
      <trkpt lat="45.62024" lon="4.67046">
        <ele>376.01</ele>
        <time>2018-10-06T06:39:32Z</time>
      </trkpt>
      <trkpt lat="45.62056" lon="4.67022">
        <ele>376.97</ele>
        <time>2018-10-06T06:39:50Z</time>
      </trkpt>
      <trkpt lat="45.62093" lon="4.67005">
        <ele>377.45</ele>
        <time>2018-10-06T06:40:07Z</time>
      </trkpt>
      <trkpt lat="45.62135" lon="4.66997">
        <ele>379.38</ele>
        <time>2018-10-06T06:40:25Z</time>
      </trkpt>
      <trkpt lat="45.62171" lon="4.67035">
        <ele>380.82</ele>
        <time>2018-10-06T06:40:43Z</time>
      </trkpt>
      <trkpt lat="45.62212" lon="4.67083">
        <ele>379.86</ele>
        <time>2018-10-06T06:41:01Z</time>
      </trkpt>
      <trkpt lat="45.62219" lon="4.67082">
        <ele>379.86</ele>
        <time>2018-10-06T06:41:03Z</time>
      </trkpt>
      <trkpt lat="45.62245" lon="4.67108">
        <ele>380.82</ele>
        <time>2018-10-06T06:41:14Z</time>
      </trkpt>
      <trkpt lat="45.62248" lon="4.67114">
        <ele>381.78</ele>
        <time>2018-10-06T06:41:50Z</time>
      </trkpt>
      <trkpt lat="45.62225" lon="4.67168">
        <ele>380.34</ele>
        <time>2018-10-06T06:42:02Z</time>
      </trkpt>
      <trkpt lat="45.62187" lon="4.67228">
        <ele>379.38</ele>
        <time>2018-10-06T06:42:19Z</time>
      </trkpt>
      <trkpt lat="45.62157" lon="4.67301">
        <ele>378.42</ele>
        <time>2018-10-06T06:42:32Z</time>
      </trkpt>
      <trkpt lat="45.62131" lon="4.67396">
        <ele>375.53</ele>
        <time>2018-10-06T06:42:47Z</time>
      </trkpt>
      <trkpt lat="45.62113" lon="4.67426">
        <ele>375.05</ele>
        <time>2018-10-06T06:42:58Z</time>
      </trkpt>
      <trkpt lat="45.62112" lon="4.67438">
        <ele>376.01</ele>
        <time>2018-10-06T06:43:04Z</time>
      </trkpt>
      <trkpt lat="45.62111" lon="4.67446">
        <ele>376.01</ele>
        <time>2018-10-06T06:43:09Z</time>
      </trkpt>
      <trkpt lat="45.62108" lon="4.67448">
        <ele>376.01</ele>
        <time>2018-10-06T06:43:12Z</time>
      </trkpt>
      <trkpt lat="45.62103" lon="4.67451">
        <ele>378.42</ele>
        <time>2018-10-06T06:43:30Z</time>
      </trkpt>
      <trkpt lat="45.62103" lon="4.67451">
        <ele>377.94</ele>
        <time>2018-10-06T06:44:50Z</time>
      </trkpt>
      <trkpt lat="45.62098" lon="4.67457">
        <ele>378.42</ele>
        <time>2018-10-06T06:44:55Z</time>
      </trkpt>
      <trkpt lat="45.62094" lon="4.67461">
        <ele>378.42</ele>
        <time>2018-10-06T06:44:57Z</time>
      </trkpt>
      <trkpt lat="45.6208" lon="4.67462">
        <ele>378.42</ele>
        <time>2018-10-06T06:45:01Z</time>
      </trkpt>
      <trkpt lat="45.62048" lon="4.67473">
        <ele>377.94</ele>
        <time>2018-10-06T06:45:11Z</time>
      </trkpt>
      <trkpt lat="45.62053" lon="4.67521">
        <ele>376.49</ele>
        <time>2018-10-06T06:45:19Z</time>
      </trkpt>
      <trkpt lat="45.62055" lon="4.67554">
        <ele>375.53</ele>
        <time>2018-10-06T06:45:28Z</time>
      </trkpt>
      <trkpt lat="45.62046" lon="4.6762">
        <ele>374.09</ele>
        <time>2018-10-06T06:45:39Z</time>
      </trkpt>
      <trkpt lat="45.62042" lon="4.67646">
        <ele>372.65</ele>
        <time>2018-10-06T06:45:44Z</time>
      </trkpt>
      <trkpt lat="45.62025" lon="4.67662">
        <ele>372.65</ele>
        <time>2018-10-06T06:45:49Z</time>
      </trkpt>
      <trkpt lat="45.61993" lon="4.67664">
        <ele>373.61</ele>
        <time>2018-10-06T06:45:56Z</time>
      </trkpt>
      <trkpt lat="45.61936" lon="4.67654">
        <ele>372.65</ele>
        <time>2018-10-06T06:46:09Z</time>
      </trkpt>
      <trkpt lat="45.61932" lon="4.67666">
        <ele>373.61</ele>
        <time>2018-10-06T06:46:13Z</time>
      </trkpt>
      <trkpt lat="45.61965" lon="4.67667">
        <ele>375.53</ele>
        <time>2018-10-06T06:46:22Z</time>
      </trkpt>
      <trkpt lat="45.62" lon="4.67674">
        <ele>375.53</ele>
        <time>2018-10-06T06:46:31Z</time>
      </trkpt>
      <trkpt lat="45.62009" lon="4.67704">
        <ele>373.61</ele>
        <time>2018-10-06T06:46:37Z</time>
      </trkpt>
      <trkpt lat="45.62005" lon="4.67727">
        <ele>373.13</ele>
        <time>2018-10-06T06:46:40Z</time>
      </trkpt>
      <trkpt lat="45.62021" lon="4.67759">
        <ele>372.65</ele>
        <time>2018-10-06T06:46:46Z</time>
      </trkpt>
      <trkpt lat="45.62088" lon="4.67891">
        <ele>367.36</ele>
        <time>2018-10-06T06:47:03Z</time>
      </trkpt>
      <trkpt lat="45.62113" lon="4.67929">
        <ele>365.92</ele>
        <time>2018-10-06T06:47:08Z</time>
      </trkpt>
      <trkpt lat="45.62127" lon="4.67964">
        <ele>364.48</ele>
        <time>2018-10-06T06:47:12Z</time>
      </trkpt>
      <trkpt lat="45.62141" lon="4.68023">
        <ele>361.59</ele>
        <time>2018-10-06T06:47:18Z</time>
      </trkpt>
      <trkpt lat="45.62145" lon="4.68054">
        <ele>359.19</ele>
        <time>2018-10-06T06:47:21Z</time>
      </trkpt>
      <trkpt lat="45.62158" lon="4.68098">
        <ele>355.83</ele>
        <time>2018-10-06T06:47:25Z</time>
      </trkpt>
      <trkpt lat="45.62171" lon="4.68115">
        <ele>354.38</ele>
        <time>2018-10-06T06:47:27Z</time>
      </trkpt>
      <trkpt lat="45.62179" lon="4.68161">
        <ele>351.98</ele>
        <time>2018-10-06T06:47:31Z</time>
      </trkpt>
      <trkpt lat="45.62178" lon="4.68223">
        <ele>350.06</ele>
        <time>2018-10-06T06:47:36Z</time>
      </trkpt>
      <trkpt lat="45.62202" lon="4.68346">
        <ele>342.37</ele>
        <time>2018-10-06T06:47:46Z</time>
      </trkpt>
      <trkpt lat="45.62203" lon="4.68464">
        <ele>339</ele>
        <time>2018-10-06T06:47:56Z</time>
      </trkpt>
      <trkpt lat="45.62209" lon="4.68545">
        <ele>338.52</ele>
        <time>2018-10-06T06:48:03Z</time>
      </trkpt>
      <trkpt lat="45.62223" lon="4.6859">
        <ele>339</ele>
        <time>2018-10-06T06:48:08Z</time>
      </trkpt>
      <trkpt lat="45.62226" lon="4.68641">
        <ele>338.04</ele>
        <time>2018-10-06T06:48:13Z</time>
      </trkpt>
      <trkpt lat="45.622" lon="4.68701">
        <ele>338.52</ele>
        <time>2018-10-06T06:48:20Z</time>
      </trkpt>
      <trkpt lat="45.62216" lon="4.68843">
        <ele>333.71</ele>
        <time>2018-10-06T06:48:36Z</time>
      </trkpt>
      <trkpt lat="45.62235" lon="4.68923">
        <ele>336.12</ele>
        <time>2018-10-06T06:48:46Z</time>
      </trkpt>
      <trkpt lat="45.62243" lon="4.68955">
        <ele>337.56</ele>
        <time>2018-10-06T06:48:50Z</time>
      </trkpt>
      <trkpt lat="45.62244" lon="4.68992">
        <ele>336.12</ele>
        <time>2018-10-06T06:48:54Z</time>
      </trkpt>
      <trkpt lat="45.62224" lon="4.6903">
        <ele>335.64</ele>
        <time>2018-10-06T06:48:59Z</time>
      </trkpt>
      <trkpt lat="45.62215" lon="4.69049">
        <ele>336.12</ele>
        <time>2018-10-06T06:49:02Z</time>
      </trkpt>
      <trkpt lat="45.62201" lon="4.69072">
        <ele>337.08</ele>
        <time>2018-10-06T06:49:09Z</time>
      </trkpt>
      <trkpt lat="45.62222" lon="4.69112">
        <ele>334.2</ele>
        <time>2018-10-06T06:49:19Z</time>
      </trkpt>
      <trkpt lat="45.62224" lon="4.69119">
        <ele>330.83</ele>
        <time>2018-10-06T06:49:35Z</time>
      </trkpt>
      <trkpt lat="45.62226" lon="4.69119">
        <ele>330.83</ele>
        <time>2018-10-06T06:49:56Z</time>
      </trkpt>
      <trkpt lat="45.62224" lon="4.69117">
        <ele>332.27</ele>
        <time>2018-10-06T06:50:42Z</time>
      </trkpt>
      <trkpt lat="45.62244" lon="4.69143">
        <ele>329.87</ele>
        <time>2018-10-06T06:50:51Z</time>
      </trkpt>
      <trkpt lat="45.62247" lon="4.69147">
        <ele>329.39</ele>
        <time>2018-10-06T06:50:52Z</time>
      </trkpt>
      <trkpt lat="45.62258" lon="4.69163">
        <ele>328.91</ele>
        <time>2018-10-06T06:50:55Z</time>
      </trkpt>
      <trkpt lat="45.62276" lon="4.69202">
        <ele>328.91</ele>
        <time>2018-10-06T06:51:02Z</time>
      </trkpt>
      <trkpt lat="45.62296" lon="4.69235">
        <ele>331.31</ele>
        <time>2018-10-06T06:51:13Z</time>
      </trkpt>
      <trkpt lat="45.62307" lon="4.6924">
        <ele>335.64</ele>
        <time>2018-10-06T06:51:23Z</time>
      </trkpt>
      <trkpt lat="45.62327" lon="4.69252">
        <ele>338.04</ele>
        <time>2018-10-06T06:51:32Z</time>
      </trkpt>
      <trkpt lat="45.62346" lon="4.69261">
        <ele>340.92</ele>
        <time>2018-10-06T06:51:41Z</time>
      </trkpt>
      <trkpt lat="45.62372" lon="4.69271">
        <ele>340.44</ele>
        <time>2018-10-06T06:51:54Z</time>
      </trkpt>
      <trkpt lat="45.62378" lon="4.69275">
        <ele>341.41</ele>
        <time>2018-10-06T06:51:58Z</time>
      </trkpt>
      <trkpt lat="45.62399" lon="4.69283">
        <ele>347.65</ele>
        <time>2018-10-06T06:52:08Z</time>
      </trkpt>
      <trkpt lat="45.62408" lon="4.69295">
        <ele>344.29</ele>
        <time>2018-10-06T06:52:13Z</time>
      </trkpt>
      <trkpt lat="45.62432" lon="4.69316">
        <ele>344.29</ele>
        <time>2018-10-06T06:52:26Z</time>
      </trkpt>
      <trkpt lat="45.62465" lon="4.69329">
        <ele>347.17</ele>
        <time>2018-10-06T06:52:42Z</time>
      </trkpt>
      <trkpt lat="45.62492" lon="4.69342">
        <ele>350.06</ele>
        <time>2018-10-06T06:52:56Z</time>
      </trkpt>
      <trkpt lat="45.62534" lon="4.69361">
        <ele>347.65</ele>
        <time>2018-10-06T06:53:12Z</time>
      </trkpt>
      <trkpt lat="45.62594" lon="4.69386">
        <ele>347.17</ele>
        <time>2018-10-06T06:53:32Z</time>
      </trkpt>
      <trkpt lat="45.62646" lon="4.69358">
        <ele>349.1</ele>
        <time>2018-10-06T06:53:52Z</time>
      </trkpt>
      <trkpt lat="45.62679" lon="4.69331">
        <ele>350.54</ele>
        <time>2018-10-06T06:54:06Z</time>
      </trkpt>
      <trkpt lat="45.62729" lon="4.69319">
        <ele>351.02</ele>
        <time>2018-10-06T06:54:23Z</time>
      </trkpt>
      <trkpt lat="45.62775" lon="4.69302">
        <ele>351.5</ele>
        <time>2018-10-06T06:54:38Z</time>
      </trkpt>
      <trkpt lat="45.62848" lon="4.69253">
        <ele>351.5</ele>
        <time>2018-10-06T06:55:01Z</time>
      </trkpt>
      <trkpt lat="45.62933" lon="4.692">
        <ele>354.38</ele>
        <time>2018-10-06T06:55:26Z</time>
      </trkpt>
      <trkpt lat="45.63033" lon="4.69164">
        <ele>354.38</ele>
        <time>2018-10-06T06:55:52Z</time>
      </trkpt>
      <trkpt lat="45.63066" lon="4.69179">
        <ele>354.38</ele>
        <time>2018-10-06T06:56:02Z</time>
      </trkpt>
      <trkpt lat="45.63075" lon="4.69234">
        <ele>351.5</ele>
        <time>2018-10-06T06:56:17Z</time>
      </trkpt>
      <trkpt lat="45.63075" lon="4.69232">
        <ele>351.98</ele>
        <time>2018-10-06T06:57:17Z</time>
      </trkpt>
      <trkpt lat="45.63082" lon="4.69236">
        <ele>351.5</ele>
        <time>2018-10-06T06:57:21Z</time>
      </trkpt>
      <trkpt lat="45.63121" lon="4.69204">
        <ele>353.42</ele>
        <time>2018-10-06T06:57:38Z</time>
      </trkpt>
      <trkpt lat="45.63135" lon="4.69192">
        <ele>353.9</ele>
        <time>2018-10-06T06:57:44Z</time>
      </trkpt>
      <trkpt lat="45.63147" lon="4.69193">
        <ele>354.86</ele>
        <time>2018-10-06T06:57:49Z</time>
      </trkpt>
      <trkpt lat="45.6317" lon="4.6928">
        <ele>351.5</ele>
        <time>2018-10-06T06:58:11Z</time>
      </trkpt>
      <trkpt lat="45.63206" lon="4.69367">
        <ele>349.1</ele>
        <time>2018-10-06T06:58:30Z</time>
      </trkpt>
      <trkpt lat="45.63254" lon="4.69358">
        <ele>351.02</ele>
        <time>2018-10-06T06:58:43Z</time>
      </trkpt>
      <trkpt lat="45.63342" lon="4.69323">
        <ele>354.86</ele>
        <time>2018-10-06T06:59:10Z</time>
      </trkpt>
      <trkpt lat="45.63406" lon="4.69295">
        <ele>358.71</ele>
        <time>2018-10-06T06:59:30Z</time>
      </trkpt>
      <trkpt lat="45.63411" lon="4.69295">
        <ele>358.23</ele>
        <time>2018-10-06T06:59:34Z</time>
      </trkpt>
      <trkpt lat="45.63413" lon="4.69363">
        <ele>353.42</ele>
        <time>2018-10-06T06:59:49Z</time>
      </trkpt>
      <trkpt lat="45.63415" lon="4.69388">
        <ele>349.1</ele>
        <time>2018-10-06T07:00:01Z</time>
      </trkpt>
      <trkpt lat="45.63415" lon="4.69387">
        <ele>348.13</ele>
        <time>2018-10-06T07:02:14Z</time>
      </trkpt>
      <trkpt lat="45.63421" lon="4.69429">
        <ele>351.02</ele>
        <time>2018-10-06T07:02:27Z</time>
      </trkpt>
      <trkpt lat="45.6343" lon="4.69513">
        <ele>348.62</ele>
        <time>2018-10-06T07:02:42Z</time>
      </trkpt>
      <trkpt lat="45.63426" lon="4.69579">
        <ele>346.69</ele>
        <time>2018-10-06T07:02:50Z</time>
      </trkpt>
      <trkpt lat="45.63427" lon="4.69592">
        <ele>345.25</ele>
        <time>2018-10-06T07:02:52Z</time>
      </trkpt>
      <trkpt lat="45.63438" lon="4.69632">
        <ele>340.92</ele>
        <time>2018-10-06T07:02:58Z</time>
      </trkpt>
      <trkpt lat="45.63445" lon="4.69657">
        <ele>339</ele>
        <time>2018-10-06T07:03:01Z</time>
      </trkpt>
      <trkpt lat="45.63463" lon="4.69812">
        <ele>339.96</ele>
        <time>2018-10-06T07:03:19Z</time>
      </trkpt>
      <trkpt lat="45.63464" lon="4.69821">
        <ele>339.96</ele>
        <time>2018-10-06T07:03:20Z</time>
      </trkpt>
      <trkpt lat="45.63467" lon="4.69883">
        <ele>339.48</ele>
        <time>2018-10-06T07:03:27Z</time>
      </trkpt>
      <trkpt lat="45.63473" lon="4.69967">
        <ele>339</ele>
        <time>2018-10-06T07:03:37Z</time>
      </trkpt>
      <trkpt lat="45.63507" lon="4.70076">
        <ele>337.08</ele>
        <time>2018-10-06T07:03:51Z</time>
      </trkpt>
      <trkpt lat="45.63534" lon="4.70218">
        <ele>335.16</ele>
        <time>2018-10-06T07:04:08Z</time>
      </trkpt>
      <trkpt lat="45.6356" lon="4.70418">
        <ele>332.75</ele>
        <time>2018-10-06T07:04:31Z</time>
      </trkpt>
      <trkpt lat="45.63585" lon="4.70522">
        <ele>331.79</ele>
        <time>2018-10-06T07:04:44Z</time>
      </trkpt>
      <trkpt lat="45.63631" lon="4.70657">
        <ele>330.35</ele>
        <time>2018-10-06T07:05:02Z</time>
      </trkpt>
      <trkpt lat="45.6364" lon="4.70695">
        <ele>329.87</ele>
        <time>2018-10-06T07:05:08Z</time>
      </trkpt>
      <trkpt lat="45.63655" lon="4.70765">
        <ele>331.79</ele>
        <time>2018-10-06T07:05:21Z</time>
      </trkpt>
      <trkpt lat="45.63677" lon="4.70867">
        <ele>333.71</ele>
        <time>2018-10-06T07:05:40Z</time>
      </trkpt>
      <trkpt lat="45.63693" lon="4.70975">
        <ele>335.16</ele>
        <time>2018-10-06T07:06:00Z</time>
      </trkpt>
      <trkpt lat="45.63705" lon="4.71051">
        <ele>337.08</ele>
        <time>2018-10-06T07:06:16Z</time>
      </trkpt>
      <trkpt lat="45.63734" lon="4.71092">
        <ele>336.6</ele>
        <time>2018-10-06T07:06:26Z</time>
      </trkpt>
      <trkpt lat="45.63749" lon="4.71103">
        <ele>336.6</ele>
        <time>2018-10-06T07:06:30Z</time>
      </trkpt>
      <trkpt lat="45.63823" lon="4.71136">
        <ele>334.68</ele>
        <time>2018-10-06T07:06:48Z</time>
      </trkpt>
      <trkpt lat="45.6386" lon="4.71173">
        <ele>333.71</ele>
        <time>2018-10-06T07:07:01Z</time>
      </trkpt>
      <trkpt lat="45.63885" lon="4.71199">
        <ele>334.68</ele>
        <time>2018-10-06T07:07:09Z</time>
      </trkpt>
      <trkpt lat="45.63911" lon="4.71226">
        <ele>336.12</ele>
        <time>2018-10-06T07:07:18Z</time>
      </trkpt>
      <trkpt lat="45.63942" lon="4.7126">
        <ele>336.12</ele>
        <time>2018-10-06T07:07:29Z</time>
      </trkpt>
      <trkpt lat="45.63947" lon="4.71261">
        <ele>336.6</ele>
        <time>2018-10-06T07:07:43Z</time>
      </trkpt>
      <trkpt lat="45.63951" lon="4.71259">
        <ele>336.6</ele>
        <time>2018-10-06T07:08:04Z</time>
      </trkpt>
      <trkpt lat="45.63949" lon="4.71224">
        <ele>335.64</ele>
        <time>2018-10-06T07:08:12Z</time>
      </trkpt>
      <trkpt lat="45.63951" lon="4.71127">
        <ele>337.08</ele>
        <time>2018-10-06T07:08:30Z</time>
      </trkpt>
      <trkpt lat="45.63976" lon="4.71045">
        <ele>338.04</ele>
        <time>2018-10-06T07:08:46Z</time>
      </trkpt>
      <trkpt lat="45.63996" lon="4.71029">
        <ele>337.56</ele>
        <time>2018-10-06T07:08:52Z</time>
      </trkpt>
      <trkpt lat="45.64096" lon="4.71071">
        <ele>336.6</ele>
        <time>2018-10-06T07:09:16Z</time>
      </trkpt>
      <trkpt lat="45.64161" lon="4.71091">
        <ele>332.27</ele>
        <time>2018-10-06T07:09:32Z</time>
      </trkpt>
      <trkpt lat="45.64256" lon="4.71107">
        <ele>329.87</ele>
        <time>2018-10-06T07:09:47Z</time>
      </trkpt>
      <trkpt lat="45.64291" lon="4.71103">
        <ele>329.39</ele>
        <time>2018-10-06T07:09:53Z</time>
      </trkpt>
      <trkpt lat="45.64363" lon="4.71117">
        <ele>325.06</ele>
        <time>2018-10-06T07:10:04Z</time>
      </trkpt>
      <trkpt lat="45.64396" lon="4.71139">
        <ele>323.14</ele>
        <time>2018-10-06T07:10:09Z</time>
      </trkpt>
      <trkpt lat="45.64414" lon="4.71162">
        <ele>323.14</ele>
        <time>2018-10-06T07:10:12Z</time>
      </trkpt>
      <trkpt lat="45.64453" lon="4.71158">
        <ele>323.14</ele>
        <time>2018-10-06T07:10:18Z</time>
      </trkpt>
      <trkpt lat="45.64484" lon="4.71122">
        <ele>323.62</ele>
        <time>2018-10-06T07:10:29Z</time>
      </trkpt>
      <trkpt lat="45.64483" lon="4.71125">
        <ele>323.62</ele>
        <time>2018-10-06T07:10:59Z</time>
      </trkpt>
      <trkpt lat="45.64504" lon="4.71157">
        <ele>320.74</ele>
        <time>2018-10-06T07:11:07Z</time>
      </trkpt>
      <trkpt lat="45.64522" lon="4.71189">
        <ele>317.37</ele>
        <time>2018-10-06T07:11:15Z</time>
      </trkpt>
      <trkpt lat="45.64521" lon="4.71187">
        <ele>316.89</ele>
        <time>2018-10-06T07:12:27Z</time>
      </trkpt>
      <trkpt lat="45.64523" lon="4.71196">
        <ele>315.45</ele>
        <time>2018-10-06T07:12:36Z</time>
      </trkpt>
      <trkpt lat="45.64527" lon="4.71207">
        <ele>314.01</ele>
        <time>2018-10-06T07:21:15Z</time>
      </trkpt>
      <trkpt lat="45.64559" lon="4.71312">
        <ele>310.16</ele>
        <time>2018-10-06T07:21:27Z</time>
      </trkpt>
      <trkpt lat="45.64574" lon="4.71349">
        <ele>309.2</ele>
        <time>2018-10-06T07:21:31Z</time>
      </trkpt>
      <trkpt lat="45.64575" lon="4.71391">
        <ele>308.72</ele>
        <time>2018-10-06T07:21:38Z</time>
      </trkpt>
      <trkpt lat="45.6454" lon="4.71421">
        <ele>308.24</ele>
        <time>2018-10-06T07:21:54Z</time>
      </trkpt>
      <trkpt lat="45.6454" lon="4.71423">
        <ele>308.24</ele>
        <time>2018-10-06T07:22:02Z</time>
      </trkpt>
      <trkpt lat="45.64538" lon="4.71429">
        <ele>307.76</ele>
        <time>2018-10-06T07:22:05Z</time>
      </trkpt>
      <trkpt lat="45.64551" lon="4.71453">
        <ele>305.84</ele>
        <time>2018-10-06T07:22:11Z</time>
      </trkpt>
      <trkpt lat="45.64627" lon="4.7148">
        <ele>303.43</ele>
        <time>2018-10-06T07:22:25Z</time>
      </trkpt>
      <trkpt lat="45.64646" lon="4.71526">
        <ele>301.03</ele>
        <time>2018-10-06T07:22:31Z</time>
      </trkpt>
      <trkpt lat="45.64634" lon="4.71662">
        <ele>294.3</ele>
        <time>2018-10-06T07:22:42Z</time>
      </trkpt>
      <trkpt lat="45.64648" lon="4.71693">
        <ele>290.94</ele>
        <time>2018-10-06T07:22:48Z</time>
      </trkpt>
      <trkpt lat="45.6468" lon="4.71696">
        <ele>290.46</ele>
        <time>2018-10-06T07:22:53Z</time>
      </trkpt>
      <trkpt lat="45.64692" lon="4.71702">
        <ele>289.97</ele>
        <time>2018-10-06T07:22:55Z</time>
      </trkpt>
      <trkpt lat="45.6472" lon="4.71704">
        <ele>288.53</ele>
        <time>2018-10-06T07:22:59Z</time>
      </trkpt>
      <trkpt lat="45.64772" lon="4.71725">
        <ele>283.25</ele>
        <time>2018-10-06T07:23:06Z</time>
      </trkpt>
      <trkpt lat="45.64793" lon="4.71741">
        <ele>282.77</ele>
        <time>2018-10-06T07:23:09Z</time>
      </trkpt>
      <trkpt lat="45.64816" lon="4.71761">
        <ele>282.28</ele>
        <time>2018-10-06T07:23:12Z</time>
      </trkpt>
      <trkpt lat="45.6484" lon="4.71771">
        <ele>281.32</ele>
        <time>2018-10-06T07:23:16Z</time>
      </trkpt>
      <trkpt lat="45.64854" lon="4.71756">
        <ele>283.25</ele>
        <time>2018-10-06T07:23:25Z</time>
      </trkpt>
      <trkpt lat="45.64854" lon="4.71756">
        <ele>283.73</ele>
        <time>2018-10-06T07:24:09Z</time>
      </trkpt>
      <trkpt lat="45.64865" lon="4.71762">
        <ele>283.25</ele>
        <time>2018-10-06T07:24:14Z</time>
      </trkpt>
      <trkpt lat="45.64892" lon="4.71768">
        <ele>283.25</ele>
        <time>2018-10-06T07:24:20Z</time>
      </trkpt>
      <trkpt lat="45.64914" lon="4.71742">
        <ele>285.17</ele>
        <time>2018-10-06T07:24:30Z</time>
      </trkpt>
      <trkpt lat="45.6494" lon="4.71725">
        <ele>289.49</ele>
        <time>2018-10-06T07:24:40Z</time>
      </trkpt>
      <trkpt lat="45.64962" lon="4.71699">
        <ele>294.78</ele>
        <time>2018-10-06T07:24:49Z</time>
      </trkpt>
      <trkpt lat="45.64993" lon="4.71669">
        <ele>301.51</ele>
        <time>2018-10-06T07:24:59Z</time>
      </trkpt>
      <trkpt lat="45.65023" lon="4.71646">
        <ele>310.64</ele>
        <time>2018-10-06T07:25:08Z</time>
      </trkpt>
      <trkpt lat="45.65041" lon="4.71635">
        <ele>318.81</ele>
        <time>2018-10-06T07:25:16Z</time>
      </trkpt>
      <trkpt lat="45.65064" lon="4.71666">
        <ele>323.62</ele>
        <time>2018-10-06T07:25:23Z</time>
      </trkpt>
      <trkpt lat="45.65063" lon="4.71668">
        <ele>324.1</ele>
        <time>2018-10-06T07:25:24Z</time>
      </trkpt>
      <trkpt lat="45.65037" lon="4.71682">
        <ele>328.91</ele>
        <time>2018-10-06T07:25:35Z</time>
      </trkpt>
      <trkpt lat="45.65015" lon="4.71708">
        <ele>325.06</ele>
        <time>2018-10-06T07:25:44Z</time>
      </trkpt>
      <trkpt lat="45.64979" lon="4.71747">
        <ele>317.85</ele>
        <time>2018-10-06T07:25:55Z</time>
      </trkpt>
      <trkpt lat="45.64951" lon="4.71781">
        <ele>312.57</ele>
        <time>2018-10-06T07:26:05Z</time>
      </trkpt>
      <trkpt lat="45.6495" lon="4.71785">
        <ele>312.09</ele>
        <time>2018-10-06T07:26:06Z</time>
      </trkpt>
      <trkpt lat="45.64953" lon="4.71809">
        <ele>306.32</ele>
        <time>2018-10-06T07:26:11Z</time>
      </trkpt>
      <trkpt lat="45.64954" lon="4.71827">
        <ele>298.15</ele>
        <time>2018-10-06T07:26:15Z</time>
      </trkpt>
      <trkpt lat="45.64959" lon="4.71849">
        <ele>294.78</ele>
        <time>2018-10-06T07:26:24Z</time>
      </trkpt>
      <trkpt lat="45.64961" lon="4.71864">
        <ele>297.18</ele>
        <time>2018-10-06T07:26:31Z</time>
      </trkpt>
      <trkpt lat="45.64972" lon="4.71886">
        <ele>297.67</ele>
        <time>2018-10-06T07:26:44Z</time>
      </trkpt>
      <trkpt lat="45.64984" lon="4.71901">
        <ele>300.07</ele>
        <time>2018-10-06T07:26:54Z</time>
      </trkpt>
      <trkpt lat="45.64997" lon="4.71898">
        <ele>300.55</ele>
        <time>2018-10-06T07:27:05Z</time>
      </trkpt>
      <trkpt lat="45.65011" lon="4.71897">
        <ele>299.11</ele>
        <time>2018-10-06T07:27:21Z</time>
      </trkpt>
      <trkpt lat="45.65012" lon="4.71896">
        <ele>299.11</ele>
        <time>2018-10-06T07:27:26Z</time>
      </trkpt>
      <trkpt lat="45.65022" lon="4.71898">
        <ele>300.55</ele>
        <time>2018-10-06T07:27:33Z</time>
      </trkpt>
      <trkpt lat="45.65036" lon="4.71891">
        <ele>303.91</ele>
        <time>2018-10-06T07:27:42Z</time>
      </trkpt>
      <trkpt lat="45.65037" lon="4.71891">
        <ele>304.39</ele>
        <time>2018-10-06T07:27:43Z</time>
      </trkpt>
      <trkpt lat="45.65065" lon="4.71889">
        <ele>306.8</ele>
        <time>2018-10-06T07:28:01Z</time>
      </trkpt>
      <trkpt lat="45.65086" lon="4.7189">
        <ele>304.88</ele>
        <time>2018-10-06T07:28:12Z</time>
      </trkpt>
      <trkpt lat="45.65131" lon="4.7188">
        <ele>305.36</ele>
        <time>2018-10-06T07:28:35Z</time>
      </trkpt>
      <trkpt lat="45.65172" lon="4.7186">
        <ele>303.43</ele>
        <time>2018-10-06T07:28:53Z</time>
      </trkpt>
      <trkpt lat="45.65183" lon="4.71854">
        <ele>302.47</ele>
        <time>2018-10-06T07:28:56Z</time>
      </trkpt>
      <trkpt lat="45.6525" lon="4.71813">
        <ele>298.63</ele>
        <time>2018-10-06T07:29:10Z</time>
      </trkpt>
      <trkpt lat="45.6534" lon="4.71757">
        <ele>296.7</ele>
        <time>2018-10-06T07:29:29Z</time>
      </trkpt>
      <trkpt lat="45.65344" lon="4.71755">
        <ele>296.7</ele>
        <time>2018-10-06T07:29:30Z</time>
      </trkpt>
      <trkpt lat="45.65369" lon="4.71741">
        <ele>297.18</ele>
        <time>2018-10-06T07:29:36Z</time>
      </trkpt>
      <trkpt lat="45.65447" lon="4.71701">
        <ele>299.11</ele>
        <time>2018-10-06T07:29:56Z</time>
      </trkpt>
      <trkpt lat="45.65463" lon="4.71698">
        <ele>300.07</ele>
        <time>2018-10-06T07:30:00Z</time>
      </trkpt>
      <trkpt lat="45.6547" lon="4.71703">
        <ele>300.55</ele>
        <time>2018-10-06T07:30:02Z</time>
      </trkpt>
      <trkpt lat="45.65505" lon="4.7172">
        <ele>303.43</ele>
        <time>2018-10-06T07:30:11Z</time>
      </trkpt>
      <trkpt lat="45.65525" lon="4.71718">
        <ele>304.88</ele>
        <time>2018-10-06T07:30:16Z</time>
      </trkpt>
      <trkpt lat="45.65542" lon="4.71726">
        <ele>305.36</ele>
        <time>2018-10-06T07:30:20Z</time>
      </trkpt>
      <trkpt lat="45.65573" lon="4.7175">
        <ele>314.01</ele>
        <time>2018-10-06T07:30:29Z</time>
      </trkpt>
      <trkpt lat="45.65612" lon="4.71784">
        <ele>321.7</ele>
        <time>2018-10-06T07:30:41Z</time>
      </trkpt>
      <trkpt lat="45.65614" lon="4.71785">
        <ele>322.66</ele>
        <time>2018-10-06T07:30:42Z</time>
      </trkpt>
      <trkpt lat="45.6562" lon="4.71789">
        <ele>322.66</ele>
        <time>2018-10-06T07:30:46Z</time>
      </trkpt>
      <trkpt lat="45.6563" lon="4.71814">
        <ele>324.58</ele>
        <time>2018-10-06T07:30:55Z</time>
      </trkpt>
      <trkpt lat="45.65633" lon="4.71808">
        <ele>323.62</ele>
        <time>2018-10-06T07:31:11Z</time>
      </trkpt>
      <trkpt lat="45.65633" lon="4.71806">
        <ele>324.1</ele>
        <time>2018-10-06T07:31:51Z</time>
      </trkpt>
      <trkpt lat="45.65655" lon="4.71807">
        <ele>324.1</ele>
        <time>2018-10-06T07:32:00Z</time>
      </trkpt>
      <trkpt lat="45.65663" lon="4.71807">
        <ele>324.1</ele>
        <time>2018-10-06T07:32:02Z</time>
      </trkpt>
      <trkpt lat="45.65678" lon="4.71809">
        <ele>323.62</ele>
        <time>2018-10-06T07:32:05Z</time>
      </trkpt>
      <trkpt lat="45.65733" lon="4.71833">
        <ele>318.33</ele>
        <time>2018-10-06T07:32:13Z</time>
      </trkpt>
      <trkpt lat="45.65773" lon="4.71848">
        <ele>312.57</ele>
        <time>2018-10-06T07:32:18Z</time>
      </trkpt>
      <trkpt lat="45.65821" lon="4.71865">
        <ele>309.68</ele>
        <time>2018-10-06T07:32:26Z</time>
      </trkpt>
      <trkpt lat="45.65846" lon="4.71883">
        <ele>312.57</ele>
        <time>2018-10-06T07:32:31Z</time>
      </trkpt>
      <trkpt lat="45.65864" lon="4.71876">
        <ele>312.57</ele>
        <time>2018-10-06T07:32:40Z</time>
      </trkpt>
      <trkpt lat="45.65864" lon="4.71875">
        <ele>312.09</ele>
        <time>2018-10-06T07:32:49Z</time>
      </trkpt>
      <trkpt lat="45.65866" lon="4.71881">
        <ele>312.57</ele>
        <time>2018-10-06T07:32:53Z</time>
      </trkpt>
      <trkpt lat="45.65866" lon="4.71891">
        <ele>312.09</ele>
        <time>2018-10-06T07:32:55Z</time>
      </trkpt>
      <trkpt lat="45.65864" lon="4.71972">
        <ele>308.24</ele>
        <time>2018-10-06T07:33:04Z</time>
      </trkpt>
      <trkpt lat="45.65861" lon="4.72033">
        <ele>302.95</ele>
        <time>2018-10-06T07:33:09Z</time>
      </trkpt>
      <trkpt lat="45.65852" lon="4.72061">
        <ele>299.59</ele>
        <time>2018-10-06T07:33:12Z</time>
      </trkpt>
      <trkpt lat="45.65858" lon="4.72075">
        <ele>292.86</ele>
        <time>2018-10-06T07:33:16Z</time>
      </trkpt>
      <trkpt lat="45.6591" lon="4.72101">
        <ele>286.13</ele>
        <time>2018-10-06T07:33:24Z</time>
      </trkpt>
      <trkpt lat="45.65933" lon="4.72113">
        <ele>283.73</ele>
        <time>2018-10-06T07:33:27Z</time>
      </trkpt>
      <trkpt lat="45.66019" lon="4.72126">
        <ele>275.07</ele>
        <time>2018-10-06T07:33:36Z</time>
      </trkpt>
      <trkpt lat="45.6606" lon="4.72123">
        <ele>271.23</ele>
        <time>2018-10-06T07:33:41Z</time>
      </trkpt>
      <trkpt lat="45.66078" lon="4.72124">
        <ele>267.86</ele>
        <time>2018-10-06T07:33:44Z</time>
      </trkpt>
      <trkpt lat="45.66098" lon="4.72149">
        <ele>266.42</ele>
        <time>2018-10-06T07:33:50Z</time>
      </trkpt>
      <trkpt lat="45.66115" lon="4.72192">
        <ele>267.86</ele>
        <time>2018-10-06T07:34:01Z</time>
      </trkpt>
      <trkpt lat="45.66132" lon="4.72251">
        <ele>272.19</ele>
        <time>2018-10-06T07:34:12Z</time>
      </trkpt>
      <trkpt lat="45.66141" lon="4.72301">
        <ele>278.44</ele>
        <time>2018-10-06T07:34:23Z</time>
      </trkpt>
      <trkpt lat="45.66137" lon="4.72314">
        <ele>281.32</ele>
        <time>2018-10-06T07:34:27Z</time>
      </trkpt>
      <trkpt lat="45.66134" lon="4.72338">
        <ele>281.8</ele>
        <time>2018-10-06T07:34:35Z</time>
      </trkpt>
      <trkpt lat="45.6613" lon="4.72343">
        <ele>282.28</ele>
        <time>2018-10-06T07:34:38Z</time>
      </trkpt>
      <trkpt lat="45.66126" lon="4.72352">
        <ele>283.25</ele>
        <time>2018-10-06T07:34:42Z</time>
      </trkpt>
      <trkpt lat="45.66123" lon="4.72362">
        <ele>283.73</ele>
        <time>2018-10-06T07:34:47Z</time>
      </trkpt>
      <trkpt lat="45.66123" lon="4.72366">
        <ele>284.69</ele>
        <time>2018-10-06T07:34:49Z</time>
      </trkpt>
      <trkpt lat="45.66122" lon="4.72378">
        <ele>285.17</ele>
        <time>2018-10-06T07:34:55Z</time>
      </trkpt>
      <trkpt lat="45.66122" lon="4.72395">
        <ele>284.69</ele>
        <time>2018-10-06T07:35:03Z</time>
      </trkpt>
      <trkpt lat="45.66123" lon="4.72403">
        <ele>284.21</ele>
        <time>2018-10-06T07:35:06Z</time>
      </trkpt>
      <trkpt lat="45.6613" lon="4.72425">
        <ele>285.17</ele>
        <time>2018-10-06T07:35:19Z</time>
      </trkpt>
      <trkpt lat="45.66136" lon="4.72437">
        <ele>285.65</ele>
        <time>2018-10-06T07:35:25Z</time>
      </trkpt>
      <trkpt lat="45.66133" lon="4.72449">
        <ele>286.61</ele>
        <time>2018-10-06T07:35:31Z</time>
      </trkpt>
      <trkpt lat="45.66131" lon="4.72457">
        <ele>286.13</ele>
        <time>2018-10-06T07:35:35Z</time>
      </trkpt>
      <trkpt lat="45.66129" lon="4.72465">
        <ele>285.65</ele>
        <time>2018-10-06T07:35:39Z</time>
      </trkpt>
      <trkpt lat="45.66127" lon="4.72487">
        <ele>286.13</ele>
        <time>2018-10-06T07:35:50Z</time>
      </trkpt>
      <trkpt lat="45.66128" lon="4.72497">
        <ele>285.17</ele>
        <time>2018-10-06T07:35:55Z</time>
      </trkpt>
      <trkpt lat="45.66127" lon="4.72514">
        <ele>285.17</ele>
        <time>2018-10-06T07:36:02Z</time>
      </trkpt>
      <trkpt lat="45.6613" lon="4.72527">
        <ele>286.13</ele>
        <time>2018-10-06T07:36:11Z</time>
      </trkpt>
      <trkpt lat="45.6614" lon="4.72535">
        <ele>287.09</ele>
        <time>2018-10-06T07:36:19Z</time>
      </trkpt>
      <trkpt lat="45.66145" lon="4.72539">
        <ele>287.09</ele>
        <time>2018-10-06T07:36:23Z</time>
      </trkpt>
      <trkpt lat="45.66149" lon="4.72552">
        <ele>287.57</ele>
        <time>2018-10-06T07:36:29Z</time>
      </trkpt>
      <trkpt lat="45.66147" lon="4.72585">
        <ele>286.61</ele>
        <time>2018-10-06T07:36:42Z</time>
      </trkpt>
      <trkpt lat="45.66144" lon="4.72594">
        <ele>287.57</ele>
        <time>2018-10-06T07:36:46Z</time>
      </trkpt>
      <trkpt lat="45.66139" lon="4.726">
        <ele>287.57</ele>
        <time>2018-10-06T07:36:50Z</time>
      </trkpt>
      <trkpt lat="45.66132" lon="4.7261">
        <ele>287.09</ele>
        <time>2018-10-06T07:36:55Z</time>
      </trkpt>
      <trkpt lat="45.66125" lon="4.72632">
        <ele>286.61</ele>
        <time>2018-10-06T07:37:06Z</time>
      </trkpt>
      <trkpt lat="45.66121" lon="4.72661">
        <ele>288.53</ele>
        <time>2018-10-06T07:37:18Z</time>
      </trkpt>
      <trkpt lat="45.66121" lon="4.72669">
        <ele>288.53</ele>
        <time>2018-10-06T07:37:22Z</time>
      </trkpt>
      <trkpt lat="45.66121" lon="4.72677">
        <ele>288.53</ele>
        <time>2018-10-06T07:37:26Z</time>
      </trkpt>
      <trkpt lat="45.66119" lon="4.72683">
        <ele>288.53</ele>
        <time>2018-10-06T07:37:28Z</time>
      </trkpt>
      <trkpt lat="45.66118" lon="4.72701">
        <ele>286.61</ele>
        <time>2018-10-06T07:37:36Z</time>
      </trkpt>
      <trkpt lat="45.66117" lon="4.72716">
        <ele>286.13</ele>
        <time>2018-10-06T07:37:41Z</time>
      </trkpt>
      <trkpt lat="45.66117" lon="4.72735">
        <ele>293.34</ele>
        <time>2018-10-06T07:37:55Z</time>
      </trkpt>
      <trkpt lat="45.66116" lon="4.72746">
        <ele>294.3</ele>
        <time>2018-10-06T07:41:42Z</time>
      </trkpt>
      <trkpt lat="45.66118" lon="4.72777">
        <ele>295.26</ele>
        <time>2018-10-06T07:41:47Z</time>
      </trkpt>
      <trkpt lat="45.6613" lon="4.72811">
        <ele>293.34</ele>
        <time>2018-10-06T07:41:52Z</time>
      </trkpt>
      <trkpt lat="45.66136" lon="4.72829">
        <ele>291.42</ele>
        <time>2018-10-06T07:41:55Z</time>
      </trkpt>
      <trkpt lat="45.6619" lon="4.72945">
        <ele>289.97</ele>
        <time>2018-10-06T07:42:09Z</time>
      </trkpt>
      <trkpt lat="45.66191" lon="4.72951">
        <ele>289.97</ele>
        <time>2018-10-06T07:42:10Z</time>
      </trkpt>
      <trkpt lat="45.662" lon="4.72974">
        <ele>287.09</ele>
        <time>2018-10-06T07:42:14Z</time>
      </trkpt>
      <trkpt lat="45.66211" lon="4.72992">
        <ele>284.21</ele>
        <time>2018-10-06T07:42:19Z</time>
      </trkpt>
      <trkpt lat="45.66243" lon="4.73018">
        <ele>284.69</ele>
        <time>2018-10-06T07:42:31Z</time>
      </trkpt>
      <trkpt lat="45.66248" lon="4.73073">
        <ele>291.42</ele>
        <time>2018-10-06T07:42:42Z</time>
      </trkpt>
      <trkpt lat="45.66254" lon="4.73085">
        <ele>291.42</ele>
        <time>2018-10-06T07:42:47Z</time>
      </trkpt>
      <trkpt lat="45.66306" lon="4.73101">
        <ele>295.26</ele>
        <time>2018-10-06T07:43:04Z</time>
      </trkpt>
      <trkpt lat="45.66337" lon="4.73112">
        <ele>296.22</ele>
        <time>2018-10-06T07:43:17Z</time>
      </trkpt>
      <trkpt lat="45.66367" lon="4.7312">
        <ele>296.7</ele>
        <time>2018-10-06T07:43:28Z</time>
      </trkpt>
      <trkpt lat="45.66393" lon="4.73128">
        <ele>298.63</ele>
        <time>2018-10-06T07:43:37Z</time>
      </trkpt>
      <trkpt lat="45.66413" lon="4.73172">
        <ele>299.11</ele>
        <time>2018-10-06T07:43:48Z</time>
      </trkpt>
      <trkpt lat="45.6644" lon="4.73275">
        <ele>299.59</ele>
        <time>2018-10-06T07:44:11Z</time>
      </trkpt>
      <trkpt lat="45.66506" lon="4.73289">
        <ele>297.18</ele>
        <time>2018-10-06T07:44:27Z</time>
      </trkpt>
      <trkpt lat="45.6659" lon="4.7329">
        <ele>299.59</ele>
        <time>2018-10-06T07:44:48Z</time>
      </trkpt>
      <trkpt lat="45.66669" lon="4.73285">
        <ele>301.51</ele>
        <time>2018-10-06T07:45:06Z</time>
      </trkpt>
      <trkpt lat="45.66686" lon="4.73276">
        <ele>301.51</ele>
        <time>2018-10-06T07:45:11Z</time>
      </trkpt>
      <trkpt lat="45.66692" lon="4.73268">
        <ele>300.55</ele>
        <time>2018-10-06T07:45:24Z</time>
      </trkpt>
      <trkpt lat="45.66701" lon="4.7325">
        <ele>303.43</ele>
        <time>2018-10-06T07:46:39Z</time>
      </trkpt>
      <trkpt lat="45.66741" lon="4.73191">
        <ele>301.03</ele>
        <time>2018-10-06T07:46:54Z</time>
      </trkpt>
      <trkpt lat="45.6679" lon="4.73089">
        <ele>298.63</ele>
        <time>2018-10-06T07:47:11Z</time>
      </trkpt>
      <trkpt lat="45.66829" lon="4.73019">
        <ele>294.78</ele>
        <time>2018-10-06T07:47:25Z</time>
      </trkpt>
      <trkpt lat="45.66899" lon="4.72899">
        <ele>289.49</ele>
        <time>2018-10-06T07:47:43Z</time>
      </trkpt>
      <trkpt lat="45.66915" lon="4.72868">
        <ele>288.05</ele>
        <time>2018-10-06T07:47:47Z</time>
      </trkpt>
      <trkpt lat="45.66921" lon="4.72841">
        <ele>286.13</ele>
        <time>2018-10-06T07:47:51Z</time>
      </trkpt>
      <trkpt lat="45.66919" lon="4.72825">
        <ele>284.69</ele>
        <time>2018-10-06T07:47:53Z</time>
      </trkpt>
      <trkpt lat="45.66919" lon="4.72775">
        <ele>281.8</ele>
        <time>2018-10-06T07:47:58Z</time>
      </trkpt>
      <trkpt lat="45.66943" lon="4.72727">
        <ele>278.92</ele>
        <time>2018-10-06T07:48:06Z</time>
      </trkpt>
      <trkpt lat="45.66958" lon="4.72728">
        <ele>280.84</ele>
        <time>2018-10-06T07:48:09Z</time>
      </trkpt>
      <trkpt lat="45.66986" lon="4.72723">
        <ele>275.56</ele>
        <time>2018-10-06T07:48:14Z</time>
      </trkpt>
      <trkpt lat="45.67018" lon="4.72685">
        <ele>277.96</ele>
        <time>2018-10-06T07:48:26Z</time>
      </trkpt>
      <trkpt lat="45.67034" lon="4.7266">
        <ele>284.21</ele>
        <time>2018-10-06T07:48:37Z</time>
      </trkpt>
      <trkpt lat="45.67042" lon="4.72646">
        <ele>287.57</ele>
        <time>2018-10-06T07:48:44Z</time>
      </trkpt>
      <trkpt lat="45.67054" lon="4.72623">
        <ele>295.26</ele>
        <time>2018-10-06T07:48:55Z</time>
      </trkpt>
      <trkpt lat="45.67056" lon="4.72616">
        <ele>298.15</ele>
        <time>2018-10-06T07:48:59Z</time>
      </trkpt>
      <trkpt lat="45.67062" lon="4.72599">
        <ele>300.55</ele>
        <time>2018-10-06T07:49:07Z</time>
      </trkpt>
      <trkpt lat="45.67063" lon="4.72571">
        <ele>303.43</ele>
        <time>2018-10-06T07:49:21Z</time>
      </trkpt>
      <trkpt lat="45.67063" lon="4.72558">
        <ele>304.39</ele>
        <time>2018-10-06T07:49:28Z</time>
      </trkpt>
      <trkpt lat="45.67052" lon="4.72511">
        <ele>307.28</ele>
        <time>2018-10-06T07:49:52Z</time>
      </trkpt>
      <trkpt lat="45.67044" lon="4.72475">
        <ele>308.24</ele>
        <time>2018-10-06T07:50:12Z</time>
      </trkpt>
      <trkpt lat="45.67042" lon="4.72444">
        <ele>307.28</ele>
        <time>2018-10-06T07:50:27Z</time>
      </trkpt>
      <trkpt lat="45.67042" lon="4.72434">
        <ele>305.84</ele>
        <time>2018-10-06T07:50:30Z</time>
      </trkpt>
      <trkpt lat="45.67037" lon="4.72419">
        <ele>304.88</ele>
        <time>2018-10-06T07:50:34Z</time>
      </trkpt>
      <trkpt lat="45.67028" lon="4.72414">
        <ele>305.36</ele>
        <time>2018-10-06T07:50:37Z</time>
      </trkpt>
      <trkpt lat="45.67018" lon="4.7239">
        <ele>305.36</ele>
        <time>2018-10-06T07:50:42Z</time>
      </trkpt>
      <trkpt lat="45.67012" lon="4.72325">
        <ele>306.32</ele>
        <time>2018-10-06T07:50:56Z</time>
      </trkpt>
      <trkpt lat="45.67012" lon="4.72324">
        <ele>306.32</ele>
        <time>2018-10-06T07:50:57Z</time>
      </trkpt>
      <trkpt lat="45.67012" lon="4.72309">
        <ele>307.28</ele>
        <time>2018-10-06T07:51:06Z</time>
      </trkpt>
      <trkpt lat="45.67013" lon="4.72296">
        <ele>307.76</ele>
        <time>2018-10-06T07:51:12Z</time>
      </trkpt>
      <trkpt lat="45.67011" lon="4.72244">
        <ele>311.6</ele>
        <time>2018-10-06T07:51:34Z</time>
      </trkpt>
      <trkpt lat="45.67014" lon="4.72174">
        <ele>313.53</ele>
        <time>2018-10-06T07:51:57Z</time>
      </trkpt>
      <trkpt lat="45.67037" lon="4.7213">
        <ele>313.53</ele>
        <time>2018-10-06T07:52:13Z</time>
      </trkpt>
      <trkpt lat="45.67057" lon="4.72108">
        <ele>312.57</ele>
        <time>2018-10-06T07:52:24Z</time>
      </trkpt>
      <trkpt lat="45.67059" lon="4.72106">
        <ele>311.6</ele>
        <time>2018-10-06T07:52:39Z</time>
      </trkpt>
      <trkpt lat="45.67059" lon="4.72106">
        <ele>311.6</ele>
        <time>2018-10-06T07:53:24Z</time>
      </trkpt>
      <trkpt lat="45.67061" lon="4.72086">
        <ele>310.64</ele>
        <time>2018-10-06T07:53:31Z</time>
      </trkpt>
      <trkpt lat="45.67077" lon="4.7196">
        <ele>309.2</ele>
        <time>2018-10-06T07:53:49Z</time>
      </trkpt>
      <trkpt lat="45.67084" lon="4.71821">
        <ele>314.01</ele>
        <time>2018-10-06T07:54:14Z</time>
      </trkpt>
      <trkpt lat="45.671" lon="4.71759">
        <ele>318.33</ele>
        <time>2018-10-06T07:54:32Z</time>
      </trkpt>
      <trkpt lat="45.67178" lon="4.7176">
        <ele>315.45</ele>
        <time>2018-10-06T07:54:51Z</time>
      </trkpt>
      <trkpt lat="45.67298" lon="4.71765">
        <ele>313.53</ele>
        <time>2018-10-06T07:55:15Z</time>
      </trkpt>
      <trkpt lat="45.67394" lon="4.71763">
        <ele>313.05</ele>
        <time>2018-10-06T07:55:34Z</time>
      </trkpt>
      <trkpt lat="45.67499" lon="4.71753">
        <ele>315.45</ele>
        <time>2018-10-06T07:55:55Z</time>
      </trkpt>
      <trkpt lat="45.67533" lon="4.7174">
        <ele>315.45</ele>
        <time>2018-10-06T07:56:03Z</time>
      </trkpt>
      <trkpt lat="45.67564" lon="4.71755">
        <ele>315.45</ele>
        <time>2018-10-06T07:56:11Z</time>
      </trkpt>
      <trkpt lat="45.67626" lon="4.71819">
        <ele>317.37</ele>
        <time>2018-10-06T07:56:31Z</time>
      </trkpt>
      <trkpt lat="45.67636" lon="4.71828">
        <ele>316.89</ele>
        <time>2018-10-06T07:56:43Z</time>
      </trkpt>
      <trkpt lat="45.67636" lon="4.71828">
        <ele>316.89</ele>
        <time>2018-10-06T07:58:26Z</time>
      </trkpt>
      <trkpt lat="45.6765" lon="4.71843">
        <ele>317.85</ele>
        <time>2018-10-06T07:59:06Z</time>
      </trkpt>
      <trkpt lat="45.6769" lon="4.71878">
        <ele>318.81</ele>
        <time>2018-10-06T07:59:21Z</time>
      </trkpt>
      <trkpt lat="45.67759" lon="4.71917">
        <ele>318.33</ele>
        <time>2018-10-06T07:59:38Z</time>
      </trkpt>
      <trkpt lat="45.67806" lon="4.71942">
        <ele>318.81</ele>
        <time>2018-10-06T07:59:53Z</time>
      </trkpt>
      <trkpt lat="45.67849" lon="4.71973">
        <ele>321.7</ele>
        <time>2018-10-06T08:00:09Z</time>
      </trkpt>
      <trkpt lat="45.67894" lon="4.72012">
        <ele>326.02</ele>
        <time>2018-10-06T08:00:26Z</time>
      </trkpt>
      <trkpt lat="45.67935" lon="4.72046">
        <ele>327.47</ele>
        <time>2018-10-06T08:00:40Z</time>
      </trkpt>
      <trkpt lat="45.67969" lon="4.72078">
        <ele>326.99</ele>
        <time>2018-10-06T08:00:53Z</time>
      </trkpt>
      <trkpt lat="45.67975" lon="4.72079">
        <ele>329.39</ele>
        <time>2018-10-06T08:00:57Z</time>
      </trkpt>
      <trkpt lat="45.67982" lon="4.72068">
        <ele>331.31</ele>
        <time>2018-10-06T08:01:01Z</time>
      </trkpt>
      <trkpt lat="45.68003" lon="4.71966">
        <ele>331.79</ele>
        <time>2018-10-06T08:01:21Z</time>
      </trkpt>
      <trkpt lat="45.68013" lon="4.71902">
        <ele>331.79</ele>
        <time>2018-10-06T08:01:34Z</time>
      </trkpt>
      <trkpt lat="45.6802" lon="4.71895">
        <ele>331.79</ele>
        <time>2018-10-06T08:01:39Z</time>
      </trkpt>
      <trkpt lat="45.68078" lon="4.71973">
        <ele>332.27</ele>
        <time>2018-10-06T08:01:59Z</time>
      </trkpt>
      <trkpt lat="45.68144" lon="4.72042">
        <ele>331.79</ele>
        <time>2018-10-06T08:02:18Z</time>
      </trkpt>
      <trkpt lat="45.68219" lon="4.72126">
        <ele>331.31</ele>
        <time>2018-10-06T08:02:38Z</time>
      </trkpt>
      <trkpt lat="45.68292" lon="4.72199">
        <ele>330.35</ele>
        <time>2018-10-06T08:02:58Z</time>
      </trkpt>
      <trkpt lat="45.68358" lon="4.72253">
        <ele>328.43</ele>
        <time>2018-10-06T08:03:15Z</time>
      </trkpt>
      <trkpt lat="45.68419" lon="4.72303">
        <ele>326.5</ele>
        <time>2018-10-06T08:03:31Z</time>
      </trkpt>
      <trkpt lat="45.68469" lon="4.72365">
        <ele>322.66</ele>
        <time>2018-10-06T08:03:44Z</time>
      </trkpt>
      <trkpt lat="45.68477" lon="4.7237">
        <ele>322.18</ele>
        <time>2018-10-06T08:03:53Z</time>
      </trkpt>
      <trkpt lat="45.68478" lon="4.72369">
        <ele>321.22</ele>
        <time>2018-10-06T08:04:32Z</time>
      </trkpt>
      <trkpt lat="45.68486" lon="4.72378">
        <ele>322.66</ele>
        <time>2018-10-06T08:09:20Z</time>
      </trkpt>
      <trkpt lat="45.68547" lon="4.72451">
        <ele>317.37</ele>
        <time>2018-10-06T08:09:33Z</time>
      </trkpt>
      <trkpt lat="45.6857" lon="4.72478">
        <ele>315.93</ele>
        <time>2018-10-06T08:09:37Z</time>
      </trkpt>
      <trkpt lat="45.68587" lon="4.72508">
        <ele>314.97</ele>
        <time>2018-10-06T08:09:41Z</time>
      </trkpt>
      <trkpt lat="45.68621" lon="4.72592">
        <ele>312.09</ele>
        <time>2018-10-06T08:09:53Z</time>
      </trkpt>
      <trkpt lat="45.68638" lon="4.72559">
        <ele>315.93</ele>
        <time>2018-10-06T08:10:03Z</time>
      </trkpt>
      <trkpt lat="45.68645" lon="4.72536">
        <ele>315.45</ele>
        <time>2018-10-06T08:10:08Z</time>
      </trkpt>
      <trkpt lat="45.68653" lon="4.72504">
        <ele>313.53</ele>
        <time>2018-10-06T08:10:13Z</time>
      </trkpt>
      <trkpt lat="45.68661" lon="4.72476">
        <ele>310.64</ele>
        <time>2018-10-06T08:10:17Z</time>
      </trkpt>
      <trkpt lat="45.68656" lon="4.72437">
        <ele>310.64</ele>
        <time>2018-10-06T08:10:24Z</time>
      </trkpt>
      <trkpt lat="45.68652" lon="4.72422">
        <ele>308.72</ele>
        <time>2018-10-06T08:10:27Z</time>
      </trkpt>
      <trkpt lat="45.68651" lon="4.72404">
        <ele>310.16</ele>
        <time>2018-10-06T08:10:33Z</time>
      </trkpt>
      <trkpt lat="45.6866" lon="4.72348">
        <ele>314.01</ele>
        <time>2018-10-06T08:10:45Z</time>
      </trkpt>
      <trkpt lat="45.68651" lon="4.72302">
        <ele>314.97</ele>
        <time>2018-10-06T08:10:59Z</time>
      </trkpt>
      <trkpt lat="45.68634" lon="4.7224">
        <ele>314.49</ele>
        <time>2018-10-06T08:11:13Z</time>
      </trkpt>
      <trkpt lat="45.68608" lon="4.72135">
        <ele>311.12</ele>
        <time>2018-10-06T08:11:33Z</time>
      </trkpt>
      <trkpt lat="45.686" lon="4.72106">
        <ele>309.2</ele>
        <time>2018-10-06T08:11:37Z</time>
      </trkpt>
      <trkpt lat="45.68588" lon="4.72078">
        <ele>307.76</ele>
        <time>2018-10-06T08:11:41Z</time>
      </trkpt>
      <trkpt lat="45.68572" lon="4.72052">
        <ele>307.28</ele>
        <time>2018-10-06T08:11:46Z</time>
      </trkpt>
      <trkpt lat="45.68566" lon="4.72021">
        <ele>307.28</ele>
        <time>2018-10-06T08:11:51Z</time>
      </trkpt>
      <trkpt lat="45.68566" lon="4.71989">
        <ele>308.24</ele>
        <time>2018-10-06T08:11:58Z</time>
      </trkpt>
      <trkpt lat="45.68574" lon="4.71981">
        <ele>307.76</ele>
        <time>2018-10-06T08:12:04Z</time>
      </trkpt>
      <trkpt lat="45.68595" lon="4.71996">
        <ele>305.36</ele>
        <time>2018-10-06T08:12:09Z</time>
      </trkpt>
      <trkpt lat="45.68615" lon="4.71976">
        <ele>304.39</ele>
        <time>2018-10-06T08:12:15Z</time>
      </trkpt>
      <trkpt lat="45.68622" lon="4.71948">
        <ele>304.39</ele>
        <time>2018-10-06T08:12:19Z</time>
      </trkpt>
      <trkpt lat="45.68648" lon="4.71871">
        <ele>301.03</ele>
        <time>2018-10-06T08:12:32Z</time>
      </trkpt>
      <trkpt lat="45.68651" lon="4.71859">
        <ele>300.07</ele>
        <time>2018-10-06T08:12:34Z</time>
      </trkpt>
      <trkpt lat="45.68654" lon="4.7184">
        <ele>297.67</ele>
        <time>2018-10-06T08:12:39Z</time>
      </trkpt>
      <trkpt lat="45.68657" lon="4.71809">
        <ele>293.82</ele>
        <time>2018-10-06T08:12:48Z</time>
      </trkpt>
      <trkpt lat="45.68668" lon="4.71778">
        <ele>290.94</ele>
        <time>2018-10-06T08:12:52Z</time>
      </trkpt>
      <trkpt lat="45.68693" lon="4.71717">
        <ele>285.65</ele>
        <time>2018-10-06T08:13:02Z</time>
      </trkpt>
      <trkpt lat="45.687" lon="4.71708">
        <ele>283.25</ele>
        <time>2018-10-06T08:13:05Z</time>
      </trkpt>
      <trkpt lat="45.68712" lon="4.71697">
        <ele>279.4</ele>
        <time>2018-10-06T08:13:09Z</time>
      </trkpt>
      <trkpt lat="45.68738" lon="4.71707">
        <ele>277</ele>
        <time>2018-10-06T08:13:18Z</time>
      </trkpt>
      <trkpt lat="45.6874" lon="4.71711">
        <ele>277</ele>
        <time>2018-10-06T08:13:19Z</time>
      </trkpt>
      <trkpt lat="45.6876" lon="4.71709">
        <ele>274.59</ele>
        <time>2018-10-06T08:13:25Z</time>
      </trkpt>
      <trkpt lat="45.68776" lon="4.71673">
        <ele>268.35</ele>
        <time>2018-10-06T08:13:33Z</time>
      </trkpt>
      <trkpt lat="45.68778" lon="4.71669">
        <ele>267.38</ele>
        <time>2018-10-06T08:13:34Z</time>
      </trkpt>
      <trkpt lat="45.68783" lon="4.7166">
        <ele>266.42</ele>
        <time>2018-10-06T08:13:36Z</time>
      </trkpt>
      <trkpt lat="45.68786" lon="4.71639">
        <ele>261.62</ele>
        <time>2018-10-06T08:13:43Z</time>
      </trkpt>
      <trkpt lat="45.68792" lon="4.71628">
        <ele>258.25</ele>
        <time>2018-10-06T08:13:48Z</time>
      </trkpt>
      <trkpt lat="45.68798" lon="4.71619">
        <ele>256.33</ele>
        <time>2018-10-06T08:13:53Z</time>
      </trkpt>
      <trkpt lat="45.68802" lon="4.7161">
        <ele>258.25</ele>
        <time>2018-10-06T08:14:04Z</time>
      </trkpt>
      <trkpt lat="45.68802" lon="4.71608">
        <ele>259.21</ele>
        <time>2018-10-06T08:14:06Z</time>
      </trkpt>
      <trkpt lat="45.68803" lon="4.71591">
        <ele>263.06</ele>
        <time>2018-10-06T08:14:27Z</time>
      </trkpt>
      <trkpt lat="45.68804" lon="4.71589">
        <ele>263.06</ele>
        <time>2018-10-06T08:14:28Z</time>
      </trkpt>
      <trkpt lat="45.68818" lon="4.71584">
        <ele>267.38</ele>
        <time>2018-10-06T08:14:39Z</time>
      </trkpt>
      <trkpt lat="45.68831" lon="4.71595">
        <ele>272.19</ele>
        <time>2018-10-06T08:14:50Z</time>
      </trkpt>
      <trkpt lat="45.68839" lon="4.71602">
        <ele>273.15</ele>
        <time>2018-10-06T08:14:55Z</time>
      </trkpt>
      <trkpt lat="45.68854" lon="4.71617">
        <ele>276.52</ele>
        <time>2018-10-06T08:15:06Z</time>
      </trkpt>
      <trkpt lat="45.68856" lon="4.7162">
        <ele>277.48</ele>
        <time>2018-10-06T08:15:08Z</time>
      </trkpt>
      <trkpt lat="45.68863" lon="4.71636">
        <ele>279.4</ele>
        <time>2018-10-06T08:15:14Z</time>
      </trkpt>
      <trkpt lat="45.68874" lon="4.71662">
        <ele>279.88</ele>
        <time>2018-10-06T08:15:25Z</time>
      </trkpt>
      <trkpt lat="45.68881" lon="4.71669">
        <ele>279.4</ele>
        <time>2018-10-06T08:15:30Z</time>
      </trkpt>
      <trkpt lat="45.68884" lon="4.71664">
        <ele>277.96</ele>
        <time>2018-10-06T08:15:33Z</time>
      </trkpt>
      <trkpt lat="45.68894" lon="4.71657">
        <ele>276.52</ele>
        <time>2018-10-06T08:15:41Z</time>
      </trkpt>
      <trkpt lat="45.68902" lon="4.71651">
        <ele>275.56</ele>
        <time>2018-10-06T08:15:48Z</time>
      </trkpt>
      <trkpt lat="45.68904" lon="4.7165">
        <ele>275.07</ele>
        <time>2018-10-06T08:15:50Z</time>
      </trkpt>
      <trkpt lat="45.68917" lon="4.71643">
        <ele>277</ele>
        <time>2018-10-06T08:16:01Z</time>
      </trkpt>
      <trkpt lat="45.68929" lon="4.71636">
        <ele>279.4</ele>
        <time>2018-10-06T08:16:11Z</time>
      </trkpt>
      <trkpt lat="45.68943" lon="4.71616">
        <ele>284.69</ele>
        <time>2018-10-06T08:16:25Z</time>
      </trkpt>
      <trkpt lat="45.68946" lon="4.71609">
        <ele>285.65</ele>
        <time>2018-10-06T08:16:30Z</time>
      </trkpt>
      <trkpt lat="45.68945" lon="4.71603">
        <ele>286.13</ele>
        <time>2018-10-06T08:16:34Z</time>
      </trkpt>
      <trkpt lat="45.68939" lon="4.71583">
        <ele>287.09</ele>
        <time>2018-10-06T08:16:46Z</time>
      </trkpt>
      <trkpt lat="45.68937" lon="4.71572">
        <ele>286.61</ele>
        <time>2018-10-06T08:16:52Z</time>
      </trkpt>
      <trkpt lat="45.68937" lon="4.71555">
        <ele>286.13</ele>
        <time>2018-10-06T08:17:00Z</time>
      </trkpt>
      <trkpt lat="45.68943" lon="4.71533">
        <ele>289.01</ele>
        <time>2018-10-06T08:17:16Z</time>
      </trkpt>
      <trkpt lat="45.68943" lon="4.7153">
        <ele>288.05</ele>
        <time>2018-10-06T08:17:18Z</time>
      </trkpt>
      <trkpt lat="45.68942" lon="4.71524">
        <ele>287.09</ele>
        <time>2018-10-06T08:17:23Z</time>
      </trkpt>
      <trkpt lat="45.68945" lon="4.71504">
        <ele>291.9</ele>
        <time>2018-10-06T08:17:37Z</time>
      </trkpt>
      <trkpt lat="45.68945" lon="4.71502">
        <ele>292.86</ele>
        <time>2018-10-06T08:17:39Z</time>
      </trkpt>
      <trkpt lat="45.68944" lon="4.71479">
        <ele>294.78</ele>
        <time>2018-10-06T08:17:56Z</time>
      </trkpt>
      <trkpt lat="45.68944" lon="4.71468">
        <ele>296.22</ele>
        <time>2018-10-06T08:18:08Z</time>
      </trkpt>
      <trkpt lat="45.68946" lon="4.71442">
        <ele>298.63</ele>
        <time>2018-10-06T08:18:19Z</time>
      </trkpt>
      <trkpt lat="45.68948" lon="4.71434">
        <ele>298.63</ele>
        <time>2018-10-06T08:18:23Z</time>
      </trkpt>
      <trkpt lat="45.68947" lon="4.71425">
        <ele>298.63</ele>
        <time>2018-10-06T08:18:36Z</time>
      </trkpt>
      <trkpt lat="45.68942" lon="4.71423">
        <ele>298.63</ele>
        <time>2018-10-06T08:19:20Z</time>
      </trkpt>
      <trkpt lat="45.68892" lon="4.71385">
        <ele>300.55</ele>
        <time>2018-10-06T08:19:45Z</time>
      </trkpt>
      <trkpt lat="45.68883" lon="4.71378">
        <ele>301.99</ele>
        <time>2018-10-06T08:19:58Z</time>
      </trkpt>
      <trkpt lat="45.6888" lon="4.71376">
        <ele>301.99</ele>
        <time>2018-10-06T08:27:32Z</time>
      </trkpt>
      <trkpt lat="45.68857" lon="4.71356">
        <ele>302.47</ele>
        <time>2018-10-06T08:27:45Z</time>
      </trkpt>
      <trkpt lat="45.68791" lon="4.71291">
        <ele>307.76</ele>
        <time>2018-10-06T08:28:13Z</time>
      </trkpt>
      <trkpt lat="45.68767" lon="4.71219">
        <ele>311.12</ele>
        <time>2018-10-06T08:28:33Z</time>
      </trkpt>
      <trkpt lat="45.68741" lon="4.71116">
        <ele>315.45</ele>
        <time>2018-10-06T08:28:59Z</time>
      </trkpt>
      <trkpt lat="45.68712" lon="4.71019">
        <ele>319.78</ele>
        <time>2018-10-06T08:29:24Z</time>
      </trkpt>
      <trkpt lat="45.68713" lon="4.70962">
        <ele>323.62</ele>
        <time>2018-10-06T08:29:38Z</time>
      </trkpt>
      <trkpt lat="45.68715" lon="4.70946">
        <ele>324.1</ele>
        <time>2018-10-06T08:29:45Z</time>
      </trkpt>
      <trkpt lat="45.68722" lon="4.70939">
        <ele>325.06</ele>
        <time>2018-10-06T08:29:51Z</time>
      </trkpt>
      <trkpt lat="45.6873" lon="4.7094">
        <ele>325.06</ele>
        <time>2018-10-06T08:30:10Z</time>
      </trkpt>
      <trkpt lat="45.6873" lon="4.70939">
        <ele>325.54</ele>
        <time>2018-10-06T08:30:23Z</time>
      </trkpt>
      <trkpt lat="45.68731" lon="4.70933">
        <ele>324.58</ele>
        <time>2018-10-06T08:30:27Z</time>
      </trkpt>
      <trkpt lat="45.68744" lon="4.70913">
        <ele>323.62</ele>
        <time>2018-10-06T08:30:34Z</time>
      </trkpt>
      <trkpt lat="45.68785" lon="4.70848">
        <ele>320.26</ele>
        <time>2018-10-06T08:30:46Z</time>
      </trkpt>
      <trkpt lat="45.68811" lon="4.70781">
        <ele>316.89</ele>
        <time>2018-10-06T08:30:55Z</time>
      </trkpt>
      <trkpt lat="45.68818" lon="4.70754">
        <ele>314.97</ele>
        <time>2018-10-06T08:30:58Z</time>
      </trkpt>
      <trkpt lat="45.68826" lon="4.70736">
        <ele>313.05</ele>
        <time>2018-10-06T08:31:01Z</time>
      </trkpt>
      <trkpt lat="45.68836" lon="4.70706">
        <ele>313.05</ele>
        <time>2018-10-06T08:31:06Z</time>
      </trkpt>
      <trkpt lat="45.68851" lon="4.70655">
        <ele>312.09</ele>
        <time>2018-10-06T08:31:18Z</time>
      </trkpt>
      <trkpt lat="45.68899" lon="4.70571">
        <ele>310.16</ele>
        <time>2018-10-06T08:31:34Z</time>
      </trkpt>
      <trkpt lat="45.68985" lon="4.70505">
        <ele>308.72</ele>
        <time>2018-10-06T08:31:51Z</time>
      </trkpt>
      <trkpt lat="45.69064" lon="4.70491">
        <ele>307.28</ele>
        <time>2018-10-06T08:32:04Z</time>
      </trkpt>
      <trkpt lat="45.69162" lon="4.70517">
        <ele>303.43</ele>
        <time>2018-10-06T08:32:20Z</time>
      </trkpt>
      <trkpt lat="45.69226" lon="4.70509">
        <ele>303.43</ele>
        <time>2018-10-06T08:32:30Z</time>
      </trkpt>
      <trkpt lat="45.6932" lon="4.70439">
        <ele>301.99</ele>
        <time>2018-10-06T08:32:46Z</time>
      </trkpt>
      <trkpt lat="45.69364" lon="4.70375">
        <ele>300.07</ele>
        <time>2018-10-06T08:32:57Z</time>
      </trkpt>
      <trkpt lat="45.69396" lon="4.70245">
        <ele>299.11</ele>
        <time>2018-10-06T08:33:16Z</time>
      </trkpt>
      <trkpt lat="45.69393" lon="4.70131">
        <ele>296.7</ele>
        <time>2018-10-06T08:33:32Z</time>
      </trkpt>
      <trkpt lat="45.69363" lon="4.70027">
        <ele>296.22</ele>
        <time>2018-10-06T08:33:47Z</time>
      </trkpt>
      <trkpt lat="45.69339" lon="4.69977">
        <ele>295.26</ele>
        <time>2018-10-06T08:33:59Z</time>
      </trkpt>
      <trkpt lat="45.69296" lon="4.69859">
        <ele>293.82</ele>
        <time>2018-10-06T08:34:16Z</time>
      </trkpt>
      <trkpt lat="45.69286" lon="4.69744">
        <ele>292.38</ele>
        <time>2018-10-06T08:34:29Z</time>
      </trkpt>
      <trkpt lat="45.69299" lon="4.69643">
        <ele>291.42</ele>
        <time>2018-10-06T08:34:40Z</time>
      </trkpt>
      <trkpt lat="45.69314" lon="4.69591">
        <ele>290.94</ele>
        <time>2018-10-06T08:34:46Z</time>
      </trkpt>
      <trkpt lat="45.69324" lon="4.69567">
        <ele>290.94</ele>
        <time>2018-10-06T08:34:49Z</time>
      </trkpt>
      <trkpt lat="45.69383" lon="4.69485">
        <ele>290.46</ele>
        <time>2018-10-06T08:35:03Z</time>
      </trkpt>
      <trkpt lat="45.69399" lon="4.69472">
        <ele>289.01</ele>
        <time>2018-10-06T08:35:07Z</time>
      </trkpt>
      <trkpt lat="45.69408" lon="4.69467">
        <ele>289.01</ele>
        <time>2018-10-06T08:35:09Z</time>
      </trkpt>
      <trkpt lat="45.69458" lon="4.69452">
        <ele>290.94</ele>
        <time>2018-10-06T08:35:23Z</time>
      </trkpt>
      <trkpt lat="45.69499" lon="4.69464">
        <ele>293.34</ele>
        <time>2018-10-06T08:35:36Z</time>
      </trkpt>
      <trkpt lat="45.69522" lon="4.69445">
        <ele>299.11</ele>
        <time>2018-10-06T08:35:49Z</time>
      </trkpt>
      <trkpt lat="45.69544" lon="4.69432">
        <ele>301.03</ele>
        <time>2018-10-06T08:36:05Z</time>
      </trkpt>
      <trkpt lat="45.69544" lon="4.69432">
        <ele>301.03</ele>
        <time>2018-10-06T08:36:55Z</time>
      </trkpt>
      <trkpt lat="45.69545" lon="4.69433">
        <ele>301.03</ele>
        <time>2018-10-06T08:38:58Z</time>
      </trkpt>
      <trkpt lat="45.6955" lon="4.69424">
        <ele>302.47</ele>
        <time>2018-10-06T08:39:04Z</time>
      </trkpt>
      <trkpt lat="45.69547" lon="4.6938">
        <ele>306.32</ele>
        <time>2018-10-06T08:39:20Z</time>
      </trkpt>
      <trkpt lat="45.6955" lon="4.69327">
        <ele>308.72</ele>
        <time>2018-10-06T08:39:38Z</time>
      </trkpt>
      <trkpt lat="45.69535" lon="4.69289">
        <ele>310.64</ele>
        <time>2018-10-06T08:39:53Z</time>
      </trkpt>
      <trkpt lat="45.69522" lon="4.69242">
        <ele>314.01</ele>
        <time>2018-10-06T08:40:09Z</time>
      </trkpt>
      <trkpt lat="45.69515" lon="4.69182">
        <ele>319.3</ele>
        <time>2018-10-06T08:40:31Z</time>
      </trkpt>
      <trkpt lat="45.69515" lon="4.69144">
        <ele>323.62</ele>
        <time>2018-10-06T08:40:48Z</time>
      </trkpt>
      <trkpt lat="45.69514" lon="4.69135">
        <ele>323.62</ele>
        <time>2018-10-06T08:40:53Z</time>
      </trkpt>
      <trkpt lat="45.695" lon="4.69108">
        <ele>325.54</ele>
        <time>2018-10-06T08:41:09Z</time>
      </trkpt>
      <trkpt lat="45.69488" lon="4.69038">
        <ele>328.43</ele>
        <time>2018-10-06T08:41:31Z</time>
      </trkpt>
      <trkpt lat="45.6949" lon="4.68981">
        <ele>329.39</ele>
        <time>2018-10-06T08:41:48Z</time>
      </trkpt>
      <trkpt lat="45.69508" lon="4.68929">
        <ele>327.47</ele>
        <time>2018-10-06T08:42:02Z</time>
      </trkpt>
      <trkpt lat="45.69511" lon="4.68923">
        <ele>326.5</ele>
        <time>2018-10-06T08:42:03Z</time>
      </trkpt>
      <trkpt lat="45.69532" lon="4.68861">
        <ele>322.66</ele>
        <time>2018-10-06T08:42:09Z</time>
      </trkpt>
      <trkpt lat="45.69566" lon="4.68688">
        <ele>318.81</ele>
        <time>2018-10-06T08:42:26Z</time>
      </trkpt>
      <trkpt lat="45.69574" lon="4.68585">
        <ele>319.78</ele>
        <time>2018-10-06T08:42:40Z</time>
      </trkpt>
      <trkpt lat="45.69574" lon="4.68579">
        <ele>319.78</ele>
        <time>2018-10-06T08:42:41Z</time>
      </trkpt>
      <trkpt lat="45.69581" lon="4.68493">
        <ele>321.22</ele>
        <time>2018-10-06T08:42:55Z</time>
      </trkpt>
      <trkpt lat="45.69571" lon="4.68469">
        <ele>321.22</ele>
        <time>2018-10-06T08:43:08Z</time>
      </trkpt>
      <trkpt lat="45.69569" lon="4.6847">
        <ele>321.22</ele>
        <time>2018-10-06T08:43:22Z</time>
      </trkpt>
      <trkpt lat="45.69551" lon="4.6846">
        <ele>321.22</ele>
        <time>2018-10-06T08:45:21Z</time>
      </trkpt>
      <trkpt lat="45.69497" lon="4.6842">
        <ele>322.18</ele>
        <time>2018-10-06T08:45:38Z</time>
      </trkpt>
      <trkpt lat="45.69467" lon="4.68377">
        <ele>320.26</ele>
        <time>2018-10-06T08:45:48Z</time>
      </trkpt>
      <trkpt lat="45.69397" lon="4.68297">
        <ele>318.33</ele>
        <time>2018-10-06T08:46:07Z</time>
      </trkpt>
      <trkpt lat="45.69319" lon="4.68244">
        <ele>315.93</ele>
        <time>2018-10-06T08:46:24Z</time>
      </trkpt>
      <trkpt lat="45.69297" lon="4.68233">
        <ele>314.97</ele>
        <time>2018-10-06T08:46:29Z</time>
      </trkpt>
      <trkpt lat="45.69277" lon="4.6821">
        <ele>313.53</ele>
        <time>2018-10-06T08:46:35Z</time>
      </trkpt>
      <trkpt lat="45.69235" lon="4.68215">
        <ele>311.6</ele>
        <time>2018-10-06T08:46:44Z</time>
      </trkpt>
      <trkpt lat="45.69188" lon="4.68226">
        <ele>310.16</ele>
        <time>2018-10-06T08:46:57Z</time>
      </trkpt>
      <trkpt lat="45.69135" lon="4.68257">
        <ele>310.16</ele>
        <time>2018-10-06T08:47:12Z</time>
      </trkpt>
      <trkpt lat="45.69092" lon="4.68298">
        <ele>308.72</ele>
        <time>2018-10-06T08:47:28Z</time>
      </trkpt>
      <trkpt lat="45.69058" lon="4.68327">
        <ele>305.36</ele>
        <time>2018-10-06T08:47:41Z</time>
      </trkpt>
      <trkpt lat="45.69016" lon="4.68337">
        <ele>301.99</ele>
        <time>2018-10-06T08:47:50Z</time>
      </trkpt>
      <trkpt lat="45.68959" lon="4.68361">
        <ele>295.26</ele>
        <time>2018-10-06T08:48:03Z</time>
      </trkpt>
      <trkpt lat="45.68937" lon="4.68358">
        <ele>292.38</ele>
        <time>2018-10-06T08:48:07Z</time>
      </trkpt>
      <trkpt lat="45.68903" lon="4.68345">
        <ele>289.49</ele>
        <time>2018-10-06T08:48:12Z</time>
      </trkpt>
      <trkpt lat="45.68885" lon="4.68341">
        <ele>287.57</ele>
        <time>2018-10-06T08:48:15Z</time>
      </trkpt>
      <trkpt lat="45.68854" lon="4.68322">
        <ele>287.57</ele>
        <time>2018-10-06T08:48:23Z</time>
      </trkpt>
      <trkpt lat="45.68854" lon="4.68316">
        <ele>287.57</ele>
        <time>2018-10-06T08:48:25Z</time>
      </trkpt>
      <trkpt lat="45.68862" lon="4.68293">
        <ele>291.42</ele>
        <time>2018-10-06T08:48:34Z</time>
      </trkpt>
      <trkpt lat="45.68856" lon="4.68275">
        <ele>289.49</ele>
        <time>2018-10-06T08:48:40Z</time>
      </trkpt>
      <trkpt lat="45.68843" lon="4.68252">
        <ele>288.53</ele>
        <time>2018-10-06T08:48:46Z</time>
      </trkpt>
      <trkpt lat="45.68828" lon="4.68238">
        <ele>285.65</ele>
        <time>2018-10-06T08:48:52Z</time>
      </trkpt>
      <trkpt lat="45.68816" lon="4.68218">
        <ele>286.13</ele>
        <time>2018-10-06T08:48:56Z</time>
      </trkpt>
      <trkpt lat="45.68801" lon="4.68185">
        <ele>286.61</ele>
        <time>2018-10-06T08:49:02Z</time>
      </trkpt>
      <trkpt lat="45.68778" lon="4.68131">
        <ele>286.61</ele>
        <time>2018-10-06T08:49:13Z</time>
      </trkpt>
      <trkpt lat="45.68761" lon="4.68095">
        <ele>289.01</ele>
        <time>2018-10-06T08:49:21Z</time>
      </trkpt>
      <trkpt lat="45.68735" lon="4.68054">
        <ele>290.46</ele>
        <time>2018-10-06T08:49:33Z</time>
      </trkpt>
      <trkpt lat="45.68714" lon="4.68023">
        <ele>296.7</ele>
        <time>2018-10-06T08:49:43Z</time>
      </trkpt>
      <trkpt lat="45.68712" lon="4.68019">
        <ele>296.22</ele>
        <time>2018-10-06T08:49:45Z</time>
      </trkpt>
      <trkpt lat="45.68726" lon="4.67989">
        <ele>296.7</ele>
        <time>2018-10-06T08:49:57Z</time>
      </trkpt>
      <trkpt lat="45.68732" lon="4.67983">
        <ele>298.15</ele>
        <time>2018-10-06T08:50:08Z</time>
      </trkpt>
      <trkpt lat="45.68737" lon="4.67979">
        <ele>300.07</ele>
        <time>2018-10-06T08:50:12Z</time>
      </trkpt>
      <trkpt lat="45.68753" lon="4.67963">
        <ele>303.91</ele>
        <time>2018-10-06T08:50:31Z</time>
      </trkpt>
      <trkpt lat="45.68761" lon="4.67948">
        <ele>305.36</ele>
        <time>2018-10-06T08:50:43Z</time>
      </trkpt>
      <trkpt lat="45.68788" lon="4.67915">
        <ele>306.32</ele>
        <time>2018-10-06T08:51:06Z</time>
      </trkpt>
      <trkpt lat="45.68811" lon="4.67881">
        <ele>310.64</ele>
        <time>2018-10-06T08:51:28Z</time>
      </trkpt>
      <trkpt lat="45.68813" lon="4.67875">
        <ele>310.64</ele>
        <time>2018-10-06T08:51:31Z</time>
      </trkpt>
      <trkpt lat="45.68822" lon="4.67863">
        <ele>311.6</ele>
        <time>2018-10-06T08:51:39Z</time>
      </trkpt>
      <trkpt lat="45.68856" lon="4.67826">
        <ele>314.97</ele>
        <time>2018-10-06T08:52:04Z</time>
      </trkpt>
      <trkpt lat="45.6891" lon="4.67764">
        <ele>318.33</ele>
        <time>2018-10-06T08:52:34Z</time>
      </trkpt>
      <trkpt lat="45.68939" lon="4.6771">
        <ele>319.78</ele>
        <time>2018-10-06T08:52:53Z</time>
      </trkpt>
      <trkpt lat="45.68965" lon="4.67659">
        <ele>319.3</ele>
        <time>2018-10-06T08:53:11Z</time>
      </trkpt>
      <trkpt lat="45.68962" lon="4.67652">
        <ele>319.78</ele>
        <time>2018-10-06T08:53:24Z</time>
      </trkpt>
      <trkpt lat="45.68949" lon="4.67633">
        <ele>319.78</ele>
        <time>2018-10-06T08:58:16Z</time>
      </trkpt>
      <trkpt lat="45.68913" lon="4.67574">
        <ele>318.81</ele>
        <time>2018-10-06T08:58:31Z</time>
      </trkpt>
      <trkpt lat="45.68907" lon="4.67564">
        <ele>318.81</ele>
        <time>2018-10-06T08:58:33Z</time>
      </trkpt>
      <trkpt lat="45.68844" lon="4.67461">
        <ele>319.3</ele>
        <time>2018-10-06T08:58:55Z</time>
      </trkpt>
      <trkpt lat="45.68801" lon="4.67414">
        <ele>316.41</ele>
        <time>2018-10-06T08:59:10Z</time>
      </trkpt>
      <trkpt lat="45.68798" lon="4.67411">
        <ele>315.45</ele>
        <time>2018-10-06T08:59:11Z</time>
      </trkpt>
      <trkpt lat="45.68775" lon="4.67399">
        <ele>314.01</ele>
        <time>2018-10-06T08:59:17Z</time>
      </trkpt>
      <trkpt lat="45.68698" lon="4.67361">
        <ele>314.01</ele>
        <time>2018-10-06T08:59:36Z</time>
      </trkpt>
      <trkpt lat="45.68676" lon="4.6735">
        <ele>313.53</ele>
        <time>2018-10-06T08:59:41Z</time>
      </trkpt>
      <trkpt lat="45.68648" lon="4.67335">
        <ele>313.05</ele>
        <time>2018-10-06T08:59:46Z</time>
      </trkpt>
      <trkpt lat="45.68599" lon="4.67305">
        <ele>312.09</ele>
        <time>2018-10-06T08:59:59Z</time>
      </trkpt>
      <trkpt lat="45.6857" lon="4.67283">
        <ele>310.64</ele>
        <time>2018-10-06T09:00:06Z</time>
      </trkpt>
      <trkpt lat="45.68514" lon="4.67254">
        <ele>307.28</ele>
        <time>2018-10-06T09:00:15Z</time>
      </trkpt>
      <trkpt lat="45.68456" lon="4.67199">
        <ele>304.88</ele>
        <time>2018-10-06T09:00:23Z</time>
      </trkpt>
      <trkpt lat="45.68409" lon="4.6716">
        <ele>299.59</ele>
        <time>2018-10-06T09:00:29Z</time>
      </trkpt>
      <trkpt lat="45.6836" lon="4.67122">
        <ele>296.7</ele>
        <time>2018-10-06T09:00:34Z</time>
      </trkpt>
      <trkpt lat="45.68344" lon="4.67108">
        <ele>299.11</ele>
        <time>2018-10-06T09:00:36Z</time>
      </trkpt>
      <trkpt lat="45.68318" lon="4.6711">
        <ele>299.11</ele>
        <time>2018-10-06T09:00:41Z</time>
      </trkpt>
      <trkpt lat="45.68266" lon="4.67146">
        <ele>302.47</ele>
        <time>2018-10-06T09:00:57Z</time>
      </trkpt>
      <trkpt lat="45.68208" lon="4.67186">
        <ele>308.24</ele>
        <time>2018-10-06T09:01:20Z</time>
      </trkpt>
      <trkpt lat="45.68181" lon="4.67212">
        <ele>312.09</ele>
        <time>2018-10-06T09:01:35Z</time>
      </trkpt>
      <trkpt lat="45.68145" lon="4.67218">
        <ele>315.45</ele>
        <time>2018-10-06T09:01:53Z</time>
      </trkpt>
      <trkpt lat="45.68097" lon="4.67236">
        <ele>319.78</ele>
        <time>2018-10-06T09:02:16Z</time>
      </trkpt>
      <trkpt lat="45.68047" lon="4.67254">
        <ele>325.06</ele>
        <time>2018-10-06T09:02:37Z</time>
      </trkpt>
      <trkpt lat="45.68009" lon="4.67252">
        <ele>327.47</ele>
        <time>2018-10-06T09:02:53Z</time>
      </trkpt>
      <trkpt lat="45.67954" lon="4.67255">
        <ele>327.95</ele>
        <time>2018-10-06T09:03:12Z</time>
      </trkpt>
      <trkpt lat="45.6791" lon="4.67264">
        <ele>330.35</ele>
        <time>2018-10-06T09:03:27Z</time>
      </trkpt>
      <trkpt lat="45.67854" lon="4.67255">
        <ele>332.75</ele>
        <time>2018-10-06T09:03:47Z</time>
      </trkpt>
      <trkpt lat="45.67813" lon="4.67247">
        <ele>334.2</ele>
        <time>2018-10-06T09:04:01Z</time>
      </trkpt>
      <trkpt lat="45.6779" lon="4.67241">
        <ele>335.64</ele>
        <time>2018-10-06T09:04:12Z</time>
      </trkpt>
      <trkpt lat="45.67756" lon="4.67232">
        <ele>336.6</ele>
        <time>2018-10-06T09:04:27Z</time>
      </trkpt>
      <trkpt lat="45.67714" lon="4.67214">
        <ele>337.08</ele>
        <time>2018-10-06T09:04:43Z</time>
      </trkpt>
      <trkpt lat="45.67673" lon="4.67198">
        <ele>341.41</ele>
        <time>2018-10-06T09:05:00Z</time>
      </trkpt>
      <trkpt lat="45.67659" lon="4.67193">
        <ele>343.33</ele>
        <time>2018-10-06T09:05:06Z</time>
      </trkpt>
      <trkpt lat="45.67619" lon="4.6718">
        <ele>346.21</ele>
        <time>2018-10-06T09:05:24Z</time>
      </trkpt>
      <trkpt lat="45.67578" lon="4.67168">
        <ele>349.58</ele>
        <time>2018-10-06T09:05:45Z</time>
      </trkpt>
      <trkpt lat="45.67538" lon="4.67156">
        <ele>353.42</ele>
        <time>2018-10-06T09:06:05Z</time>
      </trkpt>
      <trkpt lat="45.67505" lon="4.67145">
        <ele>356.79</ele>
        <time>2018-10-06T09:06:24Z</time>
      </trkpt>
      <trkpt lat="45.67479" lon="4.67143">
        <ele>359.67</ele>
        <time>2018-10-06T09:06:39Z</time>
      </trkpt>
      <trkpt lat="45.67449" lon="4.67133">
        <ele>362.55</ele>
        <time>2018-10-06T09:06:56Z</time>
      </trkpt>
      <trkpt lat="45.67416" lon="4.67123">
        <ele>365.92</ele>
        <time>2018-10-06T09:07:14Z</time>
      </trkpt>
      <trkpt lat="45.67381" lon="4.67111">
        <ele>368.8</ele>
        <time>2018-10-06T09:07:32Z</time>
      </trkpt>
      <trkpt lat="45.67377" lon="4.6711">
        <ele>368.8</ele>
        <time>2018-10-06T09:07:34Z</time>
      </trkpt>
      <trkpt lat="45.67339" lon="4.67104">
        <ele>370.73</ele>
        <time>2018-10-06T09:07:51Z</time>
      </trkpt>
      <trkpt lat="45.67299" lon="4.67103">
        <ele>373.13</ele>
        <time>2018-10-06T09:08:11Z</time>
      </trkpt>
      <trkpt lat="45.67252" lon="4.67111">
        <ele>377.94</ele>
        <time>2018-10-06T09:08:33Z</time>
      </trkpt>
      <trkpt lat="45.67203" lon="4.67117">
        <ele>379.86</ele>
        <time>2018-10-06T09:08:52Z</time>
      </trkpt>
      <trkpt lat="45.67153" lon="4.67115">
        <ele>384.18</ele>
        <time>2018-10-06T09:09:13Z</time>
      </trkpt>
      <trkpt lat="45.67114" lon="4.6712">
        <ele>388.51</ele>
        <time>2018-10-06T09:09:31Z</time>
      </trkpt>
      <trkpt lat="45.67074" lon="4.67128">
        <ele>393.8</ele>
        <time>2018-10-06T09:09:51Z</time>
      </trkpt>
      <trkpt lat="45.6703" lon="4.67121">
        <ele>399.08</ele>
        <time>2018-10-06T09:10:13Z</time>
      </trkpt>
      <trkpt lat="45.66984" lon="4.67122">
        <ele>403.41</ele>
        <time>2018-10-06T09:10:37Z</time>
      </trkpt>
      <trkpt lat="45.66952" lon="4.67126">
        <ele>407.26</ele>
        <time>2018-10-06T09:10:58Z</time>
      </trkpt>
      <trkpt lat="45.66942" lon="4.67127">
        <ele>407.74</ele>
        <time>2018-10-06T09:11:10Z</time>
      </trkpt>
      <trkpt lat="45.66942" lon="4.67127">
        <ele>407.74</ele>
        <time>2018-10-06T09:12:34Z</time>
      </trkpt>
      <trkpt lat="45.66942" lon="4.67127">
        <ele>407.26</ele>
        <time>2018-10-06T09:13:36Z</time>
      </trkpt>
      <trkpt lat="45.66942" lon="4.67127">
        <ele>407.26</ele>
        <time>2018-10-06T09:15:15Z</time>
      </trkpt>
      <trkpt lat="45.66942" lon="4.67128">
        <ele>407.26</ele>
        <time>2018-10-06T09:22:47Z</time>
      </trkpt>
      <trkpt lat="45.66936" lon="4.67134">
        <ele>406.77</ele>
        <time>2018-10-06T09:22:53Z</time>
      </trkpt>
      <trkpt lat="45.66919" lon="4.67145">
        <ele>407.26</ele>
        <time>2018-10-06T09:23:04Z</time>
      </trkpt>
      <trkpt lat="45.66883" lon="4.67165">
        <ele>409.18</ele>
        <time>2018-10-06T09:23:23Z</time>
      </trkpt>
      <trkpt lat="45.66855" lon="4.67177">
        <ele>409.66</ele>
        <time>2018-10-06T09:23:38Z</time>
      </trkpt>
      <trkpt lat="45.66807" lon="4.67192">
        <ele>412.06</ele>
        <time>2018-10-06T09:23:58Z</time>
      </trkpt>
      <trkpt lat="45.66752" lon="4.67212">
        <ele>413.02</ele>
        <time>2018-10-06T09:24:16Z</time>
      </trkpt>
      <trkpt lat="45.66692" lon="4.67255">
        <ele>412.06</ele>
        <time>2018-10-06T09:24:35Z</time>
      </trkpt>
      <trkpt lat="45.66636" lon="4.67289">
        <ele>413.5</ele>
        <time>2018-10-06T09:24:51Z</time>
      </trkpt>
      <trkpt lat="45.6662" lon="4.67287">
        <ele>413.02</ele>
        <time>2018-10-06T09:24:55Z</time>
      </trkpt>
      <trkpt lat="45.66598" lon="4.6729">
        <ele>412.54</ele>
        <time>2018-10-06T09:25:00Z</time>
      </trkpt>
      <trkpt lat="45.66569" lon="4.67311">
        <ele>412.06</ele>
        <time>2018-10-06T09:25:07Z</time>
      </trkpt>
      <trkpt lat="45.66555" lon="4.6737">
        <ele>407.74</ele>
        <time>2018-10-06T09:25:14Z</time>
      </trkpt>
      <trkpt lat="45.66558" lon="4.67394">
        <ele>406.29</ele>
        <time>2018-10-06T09:25:16Z</time>
      </trkpt>
      <trkpt lat="45.66539" lon="4.67464">
        <ele>406.77</ele>
        <time>2018-10-06T09:25:24Z</time>
      </trkpt>
      <trkpt lat="45.66494" lon="4.67468">
        <ele>410.14</ele>
        <time>2018-10-06T09:25:33Z</time>
      </trkpt>
      <trkpt lat="45.66478" lon="4.67485">
        <ele>411.58</ele>
        <time>2018-10-06T09:25:38Z</time>
      </trkpt>
      <trkpt lat="45.66438" lon="4.67587">
        <ele>412.06</ele>
        <time>2018-10-06T09:26:00Z</time>
      </trkpt>
      <trkpt lat="45.66411" lon="4.67702">
        <ele>413.02</ele>
        <time>2018-10-06T09:26:22Z</time>
      </trkpt>
      <trkpt lat="45.66414" lon="4.67794">
        <ele>413.02</ele>
        <time>2018-10-06T09:26:37Z</time>
      </trkpt>
      <trkpt lat="45.66419" lon="4.67917">
        <ele>411.1</ele>
        <time>2018-10-06T09:26:53Z</time>
      </trkpt>
      <trkpt lat="45.66414" lon="4.67949">
        <ele>410.62</ele>
        <time>2018-10-06T09:26:57Z</time>
      </trkpt>
      <trkpt lat="45.66394" lon="4.67992">
        <ele>408.7</ele>
        <time>2018-10-06T09:27:03Z</time>
      </trkpt>
      <trkpt lat="45.6637" lon="4.68013">
        <ele>407.74</ele>
        <time>2018-10-06T09:27:07Z</time>
      </trkpt>
      <trkpt lat="45.66351" lon="4.68028">
        <ele>406.29</ele>
        <time>2018-10-06T09:27:10Z</time>
      </trkpt>
      <trkpt lat="45.6632" lon="4.68039">
        <ele>405.33</ele>
        <time>2018-10-06T09:27:14Z</time>
      </trkpt>
      <trkpt lat="45.66286" lon="4.6807">
        <ele>406.29</ele>
        <time>2018-10-06T09:27:20Z</time>
      </trkpt>
      <trkpt lat="45.66263" lon="4.68097">
        <ele>405.81</ele>
        <time>2018-10-06T09:27:25Z</time>
      </trkpt>
      <trkpt lat="45.66186" lon="4.68134">
        <ele>405.81</ele>
        <time>2018-10-06T09:27:39Z</time>
      </trkpt>
      <trkpt lat="45.66163" lon="4.68137">
        <ele>405.33</ele>
        <time>2018-10-06T09:27:43Z</time>
      </trkpt>
      <trkpt lat="45.66137" lon="4.6813">
        <ele>404.37</ele>
        <time>2018-10-06T09:27:47Z</time>
      </trkpt>
      <trkpt lat="45.66057" lon="4.68059">
        <ele>395.72</ele>
        <time>2018-10-06T09:28:01Z</time>
      </trkpt>
      <trkpt lat="45.66025" lon="4.6803">
        <ele>392.36</ele>
        <time>2018-10-06T09:28:06Z</time>
      </trkpt>
      <trkpt lat="45.65976" lon="4.67992">
        <ele>384.66</ele>
        <time>2018-10-06T09:28:16Z</time>
      </trkpt>
      <trkpt lat="45.65962" lon="4.67979">
        <ele>383.7</ele>
        <time>2018-10-06T09:28:19Z</time>
      </trkpt>
      <trkpt lat="45.65942" lon="4.67957">
        <ele>381.3</ele>
        <time>2018-10-06T09:28:23Z</time>
      </trkpt>
      <trkpt lat="45.65927" lon="4.6794">
        <ele>380.34</ele>
        <time>2018-10-06T09:28:27Z</time>
      </trkpt>
      <trkpt lat="45.65898" lon="4.67913">
        <ele>377.45</ele>
        <time>2018-10-06T09:28:33Z</time>
      </trkpt>
      <trkpt lat="45.65873" lon="4.67883">
        <ele>377.45</ele>
        <time>2018-10-06T09:28:38Z</time>
      </trkpt>
      <trkpt lat="45.65851" lon="4.67835">
        <ele>378.42</ele>
        <time>2018-10-06T09:28:45Z</time>
      </trkpt>
      <trkpt lat="45.65825" lon="4.678">
        <ele>382.26</ele>
        <time>2018-10-06T09:28:50Z</time>
      </trkpt>
      <trkpt lat="45.65802" lon="4.67734">
        <ele>384.18</ele>
        <time>2018-10-06T09:28:58Z</time>
      </trkpt>
      <trkpt lat="45.6579" lon="4.67701">
        <ele>385.63</ele>
        <time>2018-10-06T09:29:02Z</time>
      </trkpt>
      <trkpt lat="45.65778" lon="4.67678">
        <ele>386.59</ele>
        <time>2018-10-06T09:29:05Z</time>
      </trkpt>
      <trkpt lat="45.65766" lon="4.67632">
        <ele>387.55</ele>
        <time>2018-10-06T09:29:12Z</time>
      </trkpt>
      <trkpt lat="45.6576" lon="4.67619">
        <ele>388.03</ele>
        <time>2018-10-06T09:29:15Z</time>
      </trkpt>
      <trkpt lat="45.65747" lon="4.6763">
        <ele>388.51</ele>
        <time>2018-10-06T09:29:19Z</time>
      </trkpt>
      <trkpt lat="45.65726" lon="4.67634">
        <ele>389.95</ele>
        <time>2018-10-06T09:29:25Z</time>
      </trkpt>
      <trkpt lat="45.65703" lon="4.67637">
        <ele>394.76</ele>
        <time>2018-10-06T09:29:31Z</time>
      </trkpt>
      <trkpt lat="45.65683" lon="4.67634">
        <ele>398.12</ele>
        <time>2018-10-06T09:29:42Z</time>
      </trkpt>
      <trkpt lat="45.65665" lon="4.67639">
        <ele>402.93</ele>
        <time>2018-10-06T09:29:52Z</time>
      </trkpt>
      <trkpt lat="45.65661" lon="4.67642">
        <ele>403.89</ele>
        <time>2018-10-06T09:29:55Z</time>
      </trkpt>
      <trkpt lat="45.65638" lon="4.67645">
        <ele>405.81</ele>
        <time>2018-10-06T09:30:06Z</time>
      </trkpt>
      <trkpt lat="45.65631" lon="4.67646">
        <ele>404.37</ele>
        <time>2018-10-06T09:30:10Z</time>
      </trkpt>
      <trkpt lat="45.65613" lon="4.67649">
        <ele>402.45</ele>
        <time>2018-10-06T09:30:20Z</time>
      </trkpt>
      <trkpt lat="45.65585" lon="4.67663">
        <ele>403.89</ele>
        <time>2018-10-06T09:30:35Z</time>
      </trkpt>
      <trkpt lat="45.65561" lon="4.67669">
        <ele>403.41</ele>
        <time>2018-10-06T09:30:49Z</time>
      </trkpt>
      <trkpt lat="45.65528" lon="4.67675">
        <ele>402.93</ele>
        <time>2018-10-06T09:31:06Z</time>
      </trkpt>
      <trkpt lat="45.65505" lon="4.67681">
        <ele>399.57</ele>
        <time>2018-10-06T09:31:19Z</time>
      </trkpt>
      <trkpt lat="45.65478" lon="4.67689">
        <ele>402.93</ele>
        <time>2018-10-06T09:31:33Z</time>
      </trkpt>
      <trkpt lat="45.65454" lon="4.67706">
        <ele>404.85</ele>
        <time>2018-10-06T09:31:48Z</time>
      </trkpt>
      <trkpt lat="45.6543" lon="4.67716">
        <ele>407.26</ele>
        <time>2018-10-06T09:32:02Z</time>
      </trkpt>
      <trkpt lat="45.65405" lon="4.6773">
        <ele>410.14</ele>
        <time>2018-10-06T09:32:18Z</time>
      </trkpt>
      <trkpt lat="45.6537" lon="4.67761">
        <ele>413.5</ele>
        <time>2018-10-06T09:32:37Z</time>
      </trkpt>
      <trkpt lat="45.65342" lon="4.67794">
        <ele>413.02</ele>
        <time>2018-10-06T09:32:52Z</time>
      </trkpt>
      <trkpt lat="45.65331" lon="4.67805">
        <ele>412.54</ele>
        <time>2018-10-06T09:32:56Z</time>
      </trkpt>
      <trkpt lat="45.653" lon="4.67826">
        <ele>410.14</ele>
        <time>2018-10-06T09:33:03Z</time>
      </trkpt>
      <trkpt lat="45.65266" lon="4.67835">
        <ele>409.18</ele>
        <time>2018-10-06T09:33:09Z</time>
      </trkpt>
      <trkpt lat="45.65239" lon="4.67832">
        <ele>409.66</ele>
        <time>2018-10-06T09:33:14Z</time>
      </trkpt>
      <trkpt lat="45.65172" lon="4.67869">
        <ele>408.7</ele>
        <time>2018-10-06T09:33:28Z</time>
      </trkpt>
      <trkpt lat="45.65083" lon="4.6791">
        <ele>413.02</ele>
        <time>2018-10-06T09:33:49Z</time>
      </trkpt>
      <trkpt lat="45.64986" lon="4.6794">
        <ele>416.87</ele>
        <time>2018-10-06T09:34:12Z</time>
      </trkpt>
      <trkpt lat="45.64931" lon="4.67961">
        <ele>419.75</ele>
        <time>2018-10-06T09:34:26Z</time>
      </trkpt>
      <trkpt lat="45.64884" lon="4.67967">
        <ele>420.23</ele>
        <time>2018-10-06T09:34:38Z</time>
      </trkpt>
      <trkpt lat="45.64875" lon="4.67967">
        <ele>419.75</ele>
        <time>2018-10-06T09:34:40Z</time>
      </trkpt>
      <trkpt lat="45.64796" lon="4.67943">
        <ele>418.31</ele>
        <time>2018-10-06T09:34:56Z</time>
      </trkpt>
      <trkpt lat="45.64791" lon="4.67943">
        <ele>418.31</ele>
        <time>2018-10-06T09:34:57Z</time>
      </trkpt>
      <trkpt lat="45.64694" lon="4.67957">
        <ele>417.35</ele>
        <time>2018-10-06T09:35:15Z</time>
      </trkpt>
      <trkpt lat="45.64648" lon="4.67952">
        <ele>416.39</ele>
        <time>2018-10-06T09:35:23Z</time>
      </trkpt>
      <trkpt lat="45.64626" lon="4.67946">
        <ele>415.91</ele>
        <time>2018-10-06T09:35:27Z</time>
      </trkpt>
      <trkpt lat="45.64577" lon="4.67907">
        <ele>413.98</ele>
        <time>2018-10-06T09:35:37Z</time>
      </trkpt>
      <trkpt lat="45.6449" lon="4.67897">
        <ele>409.18</ele>
        <time>2018-10-06T09:35:51Z</time>
      </trkpt>
      <trkpt lat="45.64467" lon="4.67887">
        <ele>409.66</ele>
        <time>2018-10-06T09:35:55Z</time>
      </trkpt>
      <trkpt lat="45.64385" lon="4.67859">
        <ele>408.7</ele>
        <time>2018-10-06T09:36:11Z</time>
      </trkpt>
      <trkpt lat="45.64318" lon="4.67834">
        <ele>408.7</ele>
        <time>2018-10-06T09:36:25Z</time>
      </trkpt>
      <trkpt lat="45.64295" lon="4.67829">
        <ele>409.66</ele>
        <time>2018-10-06T09:36:31Z</time>
      </trkpt>
      <trkpt lat="45.64273" lon="4.67844">
        <ele>407.26</ele>
        <time>2018-10-06T09:36:37Z</time>
      </trkpt>
      <trkpt lat="45.64252" lon="4.67851">
        <ele>407.26</ele>
        <time>2018-10-06T09:36:41Z</time>
      </trkpt>
      <trkpt lat="45.64162" lon="4.67826">
        <ele>407.74</ele>
        <time>2018-10-06T09:36:58Z</time>
      </trkpt>
      <trkpt lat="45.64061" lon="4.67816">
        <ele>404.85</ele>
        <time>2018-10-06T09:37:15Z</time>
      </trkpt>
      <trkpt lat="45.63965" lon="4.67804">
        <ele>403.41</ele>
        <time>2018-10-06T09:37:31Z</time>
      </trkpt>
      <trkpt lat="45.63838" lon="4.67809">
        <ele>401.97</ele>
        <time>2018-10-06T09:37:50Z</time>
      </trkpt>
      <trkpt lat="45.63732" lon="4.67815">
        <ele>397.64</ele>
        <time>2018-10-06T09:38:06Z</time>
      </trkpt>
      <trkpt lat="45.63603" lon="4.67819">
        <ele>391.39</ele>
        <time>2018-10-06T09:38:23Z</time>
      </trkpt>
      <trkpt lat="45.63481" lon="4.67828">
        <ele>388.03</ele>
        <time>2018-10-06T09:38:39Z</time>
      </trkpt>
      <trkpt lat="45.63363" lon="4.67788">
        <ele>378.42</ele>
        <time>2018-10-06T09:38:54Z</time>
      </trkpt>
      <trkpt lat="45.63297" lon="4.67774">
        <ele>374.57</ele>
        <time>2018-10-06T09:39:02Z</time>
      </trkpt>
      <trkpt lat="45.63272" lon="4.67769">
        <ele>372.65</ele>
        <time>2018-10-06T09:39:08Z</time>
      </trkpt>
      <trkpt lat="45.63246" lon="4.67769">
        <ele>371.21</ele>
        <time>2018-10-06T09:39:12Z</time>
      </trkpt>
      <trkpt lat="45.63228" lon="4.67777">
        <ele>367.84</ele>
        <time>2018-10-06T09:39:17Z</time>
      </trkpt>
      <trkpt lat="45.6322" lon="4.67779">
        <ele>366.4</ele>
        <time>2018-10-06T09:39:20Z</time>
      </trkpt>
      <trkpt lat="45.63192" lon="4.67763">
        <ele>364.48</ele>
        <time>2018-10-06T09:39:31Z</time>
      </trkpt>
      <trkpt lat="45.63169" lon="4.67758">
        <ele>364</ele>
        <time>2018-10-06T09:39:36Z</time>
      </trkpt>
      <trkpt lat="45.63086" lon="4.67756">
        <ele>357.75</ele>
        <time>2018-10-06T09:39:47Z</time>
      </trkpt>
      <trkpt lat="45.63043" lon="4.6776">
        <ele>357.75</ele>
        <time>2018-10-06T09:39:52Z</time>
      </trkpt>
      <trkpt lat="45.6302" lon="4.67729">
        <ele>357.75</ele>
        <time>2018-10-06T09:39:58Z</time>
      </trkpt>
      <trkpt lat="45.63022" lon="4.67709">
        <ele>357.27</ele>
        <time>2018-10-06T09:40:00Z</time>
      </trkpt>
      <trkpt lat="45.63003" lon="4.67667">
        <ele>355.34</ele>
        <time>2018-10-06T09:40:06Z</time>
      </trkpt>
      <trkpt lat="45.62958" lon="4.67654">
        <ele>353.42</ele>
        <time>2018-10-06T09:40:12Z</time>
      </trkpt>
      <trkpt lat="45.62937" lon="4.67632">
        <ele>352.94</ele>
        <time>2018-10-06T09:40:16Z</time>
      </trkpt>
      <trkpt lat="45.62931" lon="4.67607">
        <ele>352.46</ele>
        <time>2018-10-06T09:40:19Z</time>
      </trkpt>
      <trkpt lat="45.62922" lon="4.67584">
        <ele>351.5</ele>
        <time>2018-10-06T09:40:22Z</time>
      </trkpt>
      <trkpt lat="45.62913" lon="4.67559">
        <ele>350.06</ele>
        <time>2018-10-06T09:40:25Z</time>
      </trkpt>
      <trkpt lat="45.62893" lon="4.67518">
        <ele>348.13</ele>
        <time>2018-10-06T09:40:30Z</time>
      </trkpt>
      <trkpt lat="45.62826" lon="4.6743">
        <ele>347.65</ele>
        <time>2018-10-06T09:40:45Z</time>
      </trkpt>
      <trkpt lat="45.62768" lon="4.67386">
        <ele>338.52</ele>
        <time>2018-10-06T09:41:01Z</time>
      </trkpt>
      <trkpt lat="45.62691" lon="4.6737">
        <ele>345.25</ele>
        <time>2018-10-06T09:41:16Z</time>
      </trkpt>
      <trkpt lat="45.62674" lon="4.67346">
        <ele>346.21</ele>
        <time>2018-10-06T09:41:22Z</time>
      </trkpt>
      <trkpt lat="45.62664" lon="4.67305">
        <ele>346.69</ele>
        <time>2018-10-06T09:41:28Z</time>
      </trkpt>
      <trkpt lat="45.62608" lon="4.67242">
        <ele>350.06</ele>
        <time>2018-10-06T09:41:46Z</time>
      </trkpt>
      <trkpt lat="45.6258" lon="4.67213">
        <ele>352.46</ele>
        <time>2018-10-06T09:41:57Z</time>
      </trkpt>
      <trkpt lat="45.62565" lon="4.67196">
        <ele>353.42</ele>
        <time>2018-10-06T09:42:05Z</time>
      </trkpt>
      <trkpt lat="45.62561" lon="4.67187">
        <ele>353.42</ele>
        <time>2018-10-06T09:42:08Z</time>
      </trkpt>
      <trkpt lat="45.62538" lon="4.67179">
        <ele>353.42</ele>
        <time>2018-10-06T09:42:14Z</time>
      </trkpt>
      <trkpt lat="45.62474" lon="4.67158">
        <ele>356.79</ele>
        <time>2018-10-06T09:42:31Z</time>
      </trkpt>
      <trkpt lat="45.62407" lon="4.67125">
        <ele>358.23</ele>
        <time>2018-10-06T09:42:51Z</time>
      </trkpt>
      <trkpt lat="45.62357" lon="4.67117">
        <ele>361.59</ele>
        <time>2018-10-06T09:43:07Z</time>
      </trkpt>
      <trkpt lat="45.62299" lon="4.67114">
        <ele>365.92</ele>
        <time>2018-10-06T09:43:26Z</time>
      </trkpt>
      <trkpt lat="45.62246" lon="4.67106">
        <ele>368.32</ele>
        <time>2018-10-06T09:43:44Z</time>
      </trkpt>
      <trkpt lat="45.62219" lon="4.6707">
        <ele>368.8</ele>
        <time>2018-10-06T09:43:54Z</time>
      </trkpt>
      <trkpt lat="45.62227" lon="4.67049">
        <ele>369.28</ele>
        <time>2018-10-06T09:43:58Z</time>
      </trkpt>
      <trkpt lat="45.62307" lon="4.66953">
        <ele>370.24</ele>
        <time>2018-10-06T09:44:21Z</time>
      </trkpt>
      <trkpt lat="45.62338" lon="4.66898">
        <ele>368.8</ele>
        <time>2018-10-06T09:44:31Z</time>
      </trkpt>
      <trkpt lat="45.62364" lon="4.66852">
        <ele>367.84</ele>
        <time>2018-10-06T09:44:39Z</time>
      </trkpt>
      <trkpt lat="45.62369" lon="4.66826">
        <ele>367.36</ele>
        <time>2018-10-06T09:44:43Z</time>
      </trkpt>
      <trkpt lat="45.62376" lon="4.66784">
        <ele>367.36</ele>
        <time>2018-10-06T09:44:49Z</time>
      </trkpt>
      <trkpt lat="45.62359" lon="4.66753">
        <ele>368.32</ele>
        <time>2018-10-06T09:44:57Z</time>
      </trkpt>
      <trkpt lat="45.62339" lon="4.66747">
        <ele>368.8</ele>
        <time>2018-10-06T09:45:03Z</time>
      </trkpt>
      <trkpt lat="45.62291" lon="4.66678">
        <ele>369.76</ele>
        <time>2018-10-06T09:45:19Z</time>
      </trkpt>
      <trkpt lat="45.62271" lon="4.66666">
        <ele>368.32</ele>
        <time>2018-10-06T09:45:24Z</time>
      </trkpt>
      <trkpt lat="45.62248" lon="4.66672">
        <ele>365.92</ele>
        <time>2018-10-06T09:45:28Z</time>
      </trkpt>
      <trkpt lat="45.62227" lon="4.6665">
        <ele>363.04</ele>
        <time>2018-10-06T09:45:34Z</time>
      </trkpt>
      <trkpt lat="45.62229" lon="4.66616">
        <ele>363.52</ele>
        <time>2018-10-06T09:45:42Z</time>
      </trkpt>
      <trkpt lat="45.62229" lon="4.66617">
        <ele>363.52</ele>
        <time>2018-10-06T09:45:43Z</time>
      </trkpt>
    </trkseg>
  </trk>
</gpx>